<?xml version="1.0" encoding="UTF-8" standalone="no" ?>
<gpx xmlns="http://www.topografix.com/GPX/1/1" xmlns:xsi="http://www.w3.org/2001/XMLSchema-instance" xsi:schemaLocation="http://www.topografix.com/GPX/1/1 http://www.topografix.com/GPX/1/1/gpx.xsd" version="1.1" creator="VisuGPX - https://www.visugpx.com">
  <metadata>
    <name>Étang SOURD - Refuge du PINET - Cascade de L'ARTIGUE</name>
    <desc><![CDATA[Belle boucle sans difficulté technique.]]></desc>
  </metadata>
  <trk>
    <name><![CDATA[Etang SOURD - Refuge PINET - Casc L'ARTIGUE]]></name>
    <trkseg>
      <trkpt lat="42.71019" lon="1.42601">
        <ele>1175.35</ele>
        <time>2019-08-03T06:49:16Z</time>
      </trkpt>
      <trkpt lat="42.71012" lon="1.42591">
        <ele>1174.87</ele>
        <time>2019-08-03T06:51:11Z</time>
      </trkpt>
      <trkpt lat="42.71017" lon="1.42599">
        <ele>1174.87</ele>
        <time>2019-08-03T06:52:06Z</time>
      </trkpt>
      <trkpt lat="42.71024" lon="1.42581">
        <ele>1174.87</ele>
        <time>2019-08-03T06:53:00Z</time>
      </trkpt>
      <trkpt lat="42.7102" lon="1.42559">
        <ele>1177.27</ele>
        <time>2019-08-03T06:53:37Z</time>
      </trkpt>
      <trkpt lat="42.71027" lon="1.42559">
        <ele>1181.12</ele>
        <time>2019-08-03T06:53:58Z</time>
      </trkpt>
      <trkpt lat="42.71037" lon="1.42556">
        <ele>1183.52</ele>
        <time>2019-08-03T06:54:15Z</time>
      </trkpt>
      <trkpt lat="42.71029" lon="1.42539">
        <ele>1185.92</ele>
        <time>2019-08-03T06:54:35Z</time>
      </trkpt>
      <trkpt lat="42.71043" lon="1.4253">
        <ele>1188.81</ele>
        <time>2019-08-03T06:54:56Z</time>
      </trkpt>
      <trkpt lat="42.71034" lon="1.42519">
        <ele>1189.77</ele>
        <time>2019-08-03T06:55:19Z</time>
      </trkpt>
      <trkpt lat="42.71034" lon="1.42504">
        <ele>1190.73</ele>
        <time>2019-08-03T06:55:34Z</time>
      </trkpt>
      <trkpt lat="42.71028" lon="1.42496">
        <ele>1190.73</ele>
        <time>2019-08-03T06:55:43Z</time>
      </trkpt>
      <trkpt lat="42.71023" lon="1.42487">
        <ele>1190.25</ele>
        <time>2019-08-03T06:55:55Z</time>
      </trkpt>
      <trkpt lat="42.71008" lon="1.42475">
        <ele>1189.77</ele>
        <time>2019-08-03T06:56:36Z</time>
      </trkpt>
      <trkpt lat="42.70996" lon="1.42476">
        <ele>1189.29</ele>
        <time>2019-08-03T06:57:23Z</time>
      </trkpt>
      <trkpt lat="42.70991" lon="1.42459">
        <ele>1188.81</ele>
        <time>2019-08-03T06:57:37Z</time>
      </trkpt>
      <trkpt lat="42.70987" lon="1.42442">
        <ele>1189.29</ele>
        <time>2019-08-03T06:57:50Z</time>
      </trkpt>
      <trkpt lat="42.70983" lon="1.42422">
        <ele>1189.29</ele>
        <time>2019-08-03T06:58:03Z</time>
      </trkpt>
      <trkpt lat="42.70978" lon="1.42407">
        <ele>1189.29</ele>
        <time>2019-08-03T06:58:14Z</time>
      </trkpt>
      <trkpt lat="42.70976" lon="1.4239">
        <ele>1189.77</ele>
        <time>2019-08-03T06:58:25Z</time>
      </trkpt>
      <trkpt lat="42.70977" lon="1.4237">
        <ele>1189.77</ele>
        <time>2019-08-03T06:58:37Z</time>
      </trkpt>
      <trkpt lat="42.70971" lon="1.42354">
        <ele>1189.77</ele>
        <time>2019-08-03T06:58:49Z</time>
      </trkpt>
      <trkpt lat="42.70962" lon="1.42346">
        <ele>1189.77</ele>
        <time>2019-08-03T06:58:58Z</time>
      </trkpt>
      <trkpt lat="42.70956" lon="1.42331">
        <ele>1189.77</ele>
        <time>2019-08-03T06:59:07Z</time>
      </trkpt>
      <trkpt lat="42.70953" lon="1.42314">
        <ele>1190.25</ele>
        <time>2019-08-03T06:59:18Z</time>
      </trkpt>
      <trkpt lat="42.70951" lon="1.42298">
        <ele>1189.77</ele>
        <time>2019-08-03T06:59:29Z</time>
      </trkpt>
      <trkpt lat="42.70949" lon="1.42279">
        <ele>1189.77</ele>
        <time>2019-08-03T06:59:43Z</time>
      </trkpt>
      <trkpt lat="42.70947" lon="1.4226">
        <ele>1190.73</ele>
        <time>2019-08-03T06:59:56Z</time>
      </trkpt>
      <trkpt lat="42.70945" lon="1.42244">
        <ele>1190.25</ele>
        <time>2019-08-03T07:00:07Z</time>
      </trkpt>
      <trkpt lat="42.70944" lon="1.42226">
        <ele>1189.29</ele>
        <time>2019-08-03T07:00:19Z</time>
      </trkpt>
      <trkpt lat="42.70941" lon="1.42211">
        <ele>1189.77</ele>
        <time>2019-08-03T07:00:30Z</time>
      </trkpt>
      <trkpt lat="42.70938" lon="1.4219">
        <ele>1190.25</ele>
        <time>2019-08-03T07:00:44Z</time>
      </trkpt>
      <trkpt lat="42.7093" lon="1.42179">
        <ele>1189.77</ele>
        <time>2019-08-03T07:00:53Z</time>
      </trkpt>
      <trkpt lat="42.70922" lon="1.42169">
        <ele>1190.73</ele>
        <time>2019-08-03T07:01:00Z</time>
      </trkpt>
      <trkpt lat="42.70921" lon="1.42142">
        <ele>1195.06</ele>
        <time>2019-08-03T07:01:23Z</time>
      </trkpt>
      <trkpt lat="42.70931" lon="1.42127">
        <ele>1196.5</ele>
        <time>2019-08-03T07:01:34Z</time>
      </trkpt>
      <trkpt lat="42.70934" lon="1.42106">
        <ele>1201.3</ele>
        <time>2019-08-03T07:02:02Z</time>
      </trkpt>
      <trkpt lat="42.70931" lon="1.42084">
        <ele>1205.63</ele>
        <time>2019-08-03T07:02:28Z</time>
      </trkpt>
      <trkpt lat="42.70919" lon="1.42079">
        <ele>1206.59</ele>
        <time>2019-08-03T07:02:58Z</time>
      </trkpt>
      <trkpt lat="42.7094" lon="1.42064">
        <ele>1206.59</ele>
        <time>2019-08-03T07:03:11Z</time>
      </trkpt>
      <trkpt lat="42.70917" lon="1.42045">
        <ele>1207.55</ele>
        <time>2019-08-03T07:03:24Z</time>
      </trkpt>
      <trkpt lat="42.70915" lon="1.42037">
        <ele>1207.55</ele>
        <time>2019-08-03T07:03:31Z</time>
      </trkpt>
      <trkpt lat="42.70915" lon="1.42032">
        <ele>1207.55</ele>
        <time>2019-08-03T07:03:38Z</time>
      </trkpt>
      <trkpt lat="42.70919" lon="1.42016">
        <ele>1207.55</ele>
        <time>2019-08-03T07:03:51Z</time>
      </trkpt>
      <trkpt lat="42.7091" lon="1.41986">
        <ele>1210.44</ele>
        <time>2019-08-03T07:04:15Z</time>
      </trkpt>
      <trkpt lat="42.70923" lon="1.41963">
        <ele>1212.84</ele>
        <time>2019-08-03T07:04:34Z</time>
      </trkpt>
      <trkpt lat="42.70929" lon="1.41945">
        <ele>1215.24</ele>
        <time>2019-08-03T07:04:54Z</time>
      </trkpt>
      <trkpt lat="42.70933" lon="1.41928">
        <ele>1215.72</ele>
        <time>2019-08-03T07:05:06Z</time>
      </trkpt>
      <trkpt lat="42.70934" lon="1.41911">
        <ele>1214.76</ele>
        <time>2019-08-03T07:05:22Z</time>
      </trkpt>
      <trkpt lat="42.70914" lon="1.41885">
        <ele>1210.92</ele>
        <time>2019-08-03T07:05:46Z</time>
      </trkpt>
      <trkpt lat="42.70913" lon="1.41873">
        <ele>1210.44</ele>
        <time>2019-08-03T07:05:56Z</time>
      </trkpt>
      <trkpt lat="42.70914" lon="1.41859">
        <ele>1210.92</ele>
        <time>2019-08-03T07:06:06Z</time>
      </trkpt>
      <trkpt lat="42.70922" lon="1.41839">
        <ele>1212.84</ele>
        <time>2019-08-03T07:06:27Z</time>
      </trkpt>
      <trkpt lat="42.7092" lon="1.41825">
        <ele>1213.8</ele>
        <time>2019-08-03T07:06:39Z</time>
      </trkpt>
      <trkpt lat="42.70922" lon="1.4181">
        <ele>1214.28</ele>
        <time>2019-08-03T07:06:57Z</time>
      </trkpt>
      <trkpt lat="42.70932" lon="1.41792">
        <ele>1214.76</ele>
        <time>2019-08-03T07:08:00Z</time>
      </trkpt>
      <trkpt lat="42.70935" lon="1.41778">
        <ele>1216.21</ele>
        <time>2019-08-03T07:08:13Z</time>
      </trkpt>
      <trkpt lat="42.70902" lon="1.41725">
        <ele>1218.61</ele>
        <time>2019-08-03T07:08:37Z</time>
      </trkpt>
      <trkpt lat="42.70896" lon="1.41709">
        <ele>1218.61</ele>
        <time>2019-08-03T07:08:43Z</time>
      </trkpt>
      <trkpt lat="42.7089" lon="1.41705">
        <ele>1218.61</ele>
        <time>2019-08-03T07:08:49Z</time>
      </trkpt>
      <trkpt lat="42.70889" lon="1.41687">
        <ele>1220.05</ele>
        <time>2019-08-03T07:08:58Z</time>
      </trkpt>
      <trkpt lat="42.70903" lon="1.41676">
        <ele>1221.01</ele>
        <time>2019-08-03T07:09:07Z</time>
      </trkpt>
      <trkpt lat="42.70893" lon="1.4167">
        <ele>1221.97</ele>
        <time>2019-08-03T07:09:15Z</time>
      </trkpt>
      <trkpt lat="42.70892" lon="1.41659">
        <ele>1222.93</ele>
        <time>2019-08-03T07:09:25Z</time>
      </trkpt>
      <trkpt lat="42.70884" lon="1.41659">
        <ele>1224.86</ele>
        <time>2019-08-03T07:09:35Z</time>
      </trkpt>
      <trkpt lat="42.70896" lon="1.41659">
        <ele>1226.78</ele>
        <time>2019-08-03T07:09:51Z</time>
      </trkpt>
      <trkpt lat="42.70888" lon="1.41646">
        <ele>1227.26</ele>
        <time>2019-08-03T07:10:05Z</time>
      </trkpt>
      <trkpt lat="42.70889" lon="1.41637">
        <ele>1229.18</ele>
        <time>2019-08-03T07:10:22Z</time>
      </trkpt>
      <trkpt lat="42.70885" lon="1.41616">
        <ele>1230.62</ele>
        <time>2019-08-03T07:10:38Z</time>
      </trkpt>
      <trkpt lat="42.70867" lon="1.4161">
        <ele>1231.11</ele>
        <time>2019-08-03T07:10:58Z</time>
      </trkpt>
      <trkpt lat="42.70865" lon="1.41592">
        <ele>1233.03</ele>
        <time>2019-08-03T07:11:15Z</time>
      </trkpt>
      <trkpt lat="42.70873" lon="1.41572">
        <ele>1234.95</ele>
        <time>2019-08-03T07:11:34Z</time>
      </trkpt>
      <trkpt lat="42.70882" lon="1.41546">
        <ele>1239.76</ele>
        <time>2019-08-03T07:12:07Z</time>
      </trkpt>
      <trkpt lat="42.70875" lon="1.4153">
        <ele>1243.6</ele>
        <time>2019-08-03T07:12:54Z</time>
      </trkpt>
      <trkpt lat="42.70866" lon="1.41528">
        <ele>1247.93</ele>
        <time>2019-08-03T07:13:20Z</time>
      </trkpt>
      <trkpt lat="42.7085" lon="1.41524">
        <ele>1249.85</ele>
        <time>2019-08-03T07:13:39Z</time>
      </trkpt>
      <trkpt lat="42.70841" lon="1.41533">
        <ele>1253.22</ele>
        <time>2019-08-03T07:14:06Z</time>
      </trkpt>
      <trkpt lat="42.7083" lon="1.41527">
        <ele>1256.58</ele>
        <time>2019-08-03T07:14:45Z</time>
      </trkpt>
      <trkpt lat="42.70827" lon="1.41538">
        <ele>1259.46</ele>
        <time>2019-08-03T07:15:05Z</time>
      </trkpt>
      <trkpt lat="42.70829" lon="1.41557">
        <ele>1262.35</ele>
        <time>2019-08-03T07:15:28Z</time>
      </trkpt>
      <trkpt lat="42.70828" lon="1.41568">
        <ele>1265.23</ele>
        <time>2019-08-03T07:15:50Z</time>
      </trkpt>
      <trkpt lat="42.70818" lon="1.41575">
        <ele>1268.6</ele>
        <time>2019-08-03T07:16:14Z</time>
      </trkpt>
      <trkpt lat="42.70812" lon="1.41576">
        <ele>1271.48</ele>
        <time>2019-08-03T07:16:39Z</time>
      </trkpt>
      <trkpt lat="42.70805" lon="1.4158">
        <ele>1274.36</ele>
        <time>2019-08-03T07:17:05Z</time>
      </trkpt>
      <trkpt lat="42.70801" lon="1.41591">
        <ele>1278.21</ele>
        <time>2019-08-03T07:17:28Z</time>
      </trkpt>
      <trkpt lat="42.70796" lon="1.41599">
        <ele>1281.09</ele>
        <time>2019-08-03T07:17:53Z</time>
      </trkpt>
      <trkpt lat="42.7079" lon="1.41605">
        <ele>1285.42</ele>
        <time>2019-08-03T07:18:27Z</time>
      </trkpt>
      <trkpt lat="42.70785" lon="1.41611">
        <ele>1288.3</ele>
        <time>2019-08-03T07:18:46Z</time>
      </trkpt>
      <trkpt lat="42.70779" lon="1.41611">
        <ele>1292.63</ele>
        <time>2019-08-03T07:19:21Z</time>
      </trkpt>
      <trkpt lat="42.70768" lon="1.41623">
        <ele>1296.96</ele>
        <time>2019-08-03T07:19:59Z</time>
      </trkpt>
      <trkpt lat="42.70762" lon="1.41629">
        <ele>1301.28</ele>
        <time>2019-08-03T07:20:35Z</time>
      </trkpt>
      <trkpt lat="42.70755" lon="1.4164">
        <ele>1305.61</ele>
        <time>2019-08-03T07:21:07Z</time>
      </trkpt>
      <trkpt lat="42.70741" lon="1.41649">
        <ele>1312.82</ele>
        <time>2019-08-03T07:21:54Z</time>
      </trkpt>
      <trkpt lat="42.70734" lon="1.41662">
        <ele>1317.14</ele>
        <time>2019-08-03T07:22:26Z</time>
      </trkpt>
      <trkpt lat="42.70722" lon="1.4168">
        <ele>1324.35</ele>
        <time>2019-08-03T07:23:13Z</time>
      </trkpt>
      <trkpt lat="42.70719" lon="1.41694">
        <ele>1326.76</ele>
        <time>2019-08-03T07:23:34Z</time>
      </trkpt>
      <trkpt lat="42.70714" lon="1.41708">
        <ele>1331.08</ele>
        <time>2019-08-03T07:24:06Z</time>
      </trkpt>
      <trkpt lat="42.70697" lon="1.41705">
        <ele>1336.37</ele>
        <time>2019-08-03T07:24:44Z</time>
      </trkpt>
      <trkpt lat="42.70688" lon="1.41676">
        <ele>1340.7</ele>
        <time>2019-08-03T07:25:28Z</time>
      </trkpt>
      <trkpt lat="42.70682" lon="1.41661">
        <ele>1344.54</ele>
        <time>2019-08-03T07:25:56Z</time>
      </trkpt>
      <trkpt lat="42.7068" lon="1.41635">
        <ele>1349.35</ele>
        <time>2019-08-03T07:26:37Z</time>
      </trkpt>
      <trkpt lat="42.70672" lon="1.41619">
        <ele>1352.71</ele>
        <time>2019-08-03T07:27:03Z</time>
      </trkpt>
      <trkpt lat="42.70668" lon="1.41598">
        <ele>1356.08</ele>
        <time>2019-08-03T07:27:33Z</time>
      </trkpt>
      <trkpt lat="42.70664" lon="1.41584">
        <ele>1359.44</ele>
        <time>2019-08-03T07:27:58Z</time>
      </trkpt>
      <trkpt lat="42.70656" lon="1.41574">
        <ele>1364.25</ele>
        <time>2019-08-03T07:28:29Z</time>
      </trkpt>
      <trkpt lat="42.70655" lon="1.41558">
        <ele>1367.13</ele>
        <time>2019-08-03T07:28:55Z</time>
      </trkpt>
      <trkpt lat="42.70654" lon="1.4154">
        <ele>1371.94</ele>
        <time>2019-08-03T07:29:29Z</time>
      </trkpt>
      <trkpt lat="42.70659" lon="1.41528">
        <ele>1376.75</ele>
        <time>2019-08-03T07:30:05Z</time>
      </trkpt>
      <trkpt lat="42.70665" lon="1.41521">
        <ele>1382.51</ele>
        <time>2019-08-03T07:30:40Z</time>
      </trkpt>
      <trkpt lat="42.70673" lon="1.41515">
        <ele>1380.59</ele>
        <time>2019-08-03T07:31:00Z</time>
      </trkpt>
      <trkpt lat="42.70672" lon="1.41494">
        <ele>1380.59</ele>
        <time>2019-08-03T07:31:29Z</time>
      </trkpt>
      <trkpt lat="42.7067" lon="1.4147">
        <ele>1382.51</ele>
        <time>2019-08-03T07:31:56Z</time>
      </trkpt>
      <trkpt lat="42.70669" lon="1.41448">
        <ele>1382.51</ele>
        <time>2019-08-03T07:32:21Z</time>
      </trkpt>
      <trkpt lat="42.70666" lon="1.41424">
        <ele>1382.99</ele>
        <time>2019-08-03T07:32:42Z</time>
      </trkpt>
      <trkpt lat="42.7067" lon="1.41394">
        <ele>1382.03</ele>
        <time>2019-08-03T07:33:08Z</time>
      </trkpt>
      <trkpt lat="42.70672" lon="1.41362">
        <ele>1384.44</ele>
        <time>2019-08-03T07:33:35Z</time>
      </trkpt>
      <trkpt lat="42.70671" lon="1.41328">
        <ele>1387.32</ele>
        <time>2019-08-03T07:34:04Z</time>
      </trkpt>
      <trkpt lat="42.70671" lon="1.41298">
        <ele>1390.2</ele>
        <time>2019-08-03T07:34:29Z</time>
      </trkpt>
      <trkpt lat="42.70676" lon="1.41272">
        <ele>1389.24</ele>
        <time>2019-08-03T07:34:51Z</time>
      </trkpt>
      <trkpt lat="42.70674" lon="1.41245">
        <ele>1392.61</ele>
        <time>2019-08-03T07:35:15Z</time>
      </trkpt>
      <trkpt lat="42.70683" lon="1.41215">
        <ele>1394.05</ele>
        <time>2019-08-03T07:35:45Z</time>
      </trkpt>
      <trkpt lat="42.70689" lon="1.41188">
        <ele>1397.41</ele>
        <time>2019-08-03T07:36:19Z</time>
      </trkpt>
      <trkpt lat="42.70702" lon="1.41171">
        <ele>1400.3</ele>
        <time>2019-08-03T07:36:55Z</time>
      </trkpt>
      <trkpt lat="42.70693" lon="1.41144">
        <ele>1405.1</ele>
        <time>2019-08-03T07:37:22Z</time>
      </trkpt>
      <trkpt lat="42.70692" lon="1.41116">
        <ele>1408.95</ele>
        <time>2019-08-03T07:38:29Z</time>
      </trkpt>
      <trkpt lat="42.70683" lon="1.41096">
        <ele>1413.28</ele>
        <time>2019-08-03T07:39:04Z</time>
      </trkpt>
      <trkpt lat="42.70682" lon="1.41066">
        <ele>1418.08</ele>
        <time>2019-08-03T07:39:39Z</time>
      </trkpt>
      <trkpt lat="42.70674" lon="1.41047">
        <ele>1420.97</ele>
        <time>2019-08-03T07:40:18Z</time>
      </trkpt>
      <trkpt lat="42.70666" lon="1.41021">
        <ele>1427.21</ele>
        <time>2019-08-03T07:41:02Z</time>
      </trkpt>
      <trkpt lat="42.70663" lon="1.40999">
        <ele>1432.98</ele>
        <time>2019-08-03T07:41:48Z</time>
      </trkpt>
      <trkpt lat="42.70657" lon="1.40974">
        <ele>1438.75</ele>
        <time>2019-08-03T07:42:21Z</time>
      </trkpt>
      <trkpt lat="42.70645" lon="1.40969">
        <ele>1445.96</ele>
        <time>2019-08-03T07:43:16Z</time>
      </trkpt>
      <trkpt lat="42.70645" lon="1.40946">
        <ele>1449.32</ele>
        <time>2019-08-03T07:43:44Z</time>
      </trkpt>
      <trkpt lat="42.70646" lon="1.40924">
        <ele>1452.69</ele>
        <time>2019-08-03T07:44:18Z</time>
      </trkpt>
      <trkpt lat="42.70648" lon="1.40895">
        <ele>1456.05</ele>
        <time>2019-08-03T07:44:46Z</time>
      </trkpt>
      <trkpt lat="42.70649" lon="1.40872">
        <ele>1458.94</ele>
        <time>2019-08-03T07:46:05Z</time>
      </trkpt>
      <trkpt lat="42.70646" lon="1.40853">
        <ele>1461.82</ele>
        <time>2019-08-03T07:46:31Z</time>
      </trkpt>
      <trkpt lat="42.70644" lon="1.40835">
        <ele>1464.71</ele>
        <time>2019-08-03T07:46:58Z</time>
      </trkpt>
      <trkpt lat="42.7064" lon="1.40817">
        <ele>1468.07</ele>
        <time>2019-08-03T07:47:27Z</time>
      </trkpt>
      <trkpt lat="42.7063" lon="1.40802">
        <ele>1472.4</ele>
        <time>2019-08-03T07:47:59Z</time>
      </trkpt>
      <trkpt lat="42.70619" lon="1.40793">
        <ele>1477.68</ele>
        <time>2019-08-03T07:48:33Z</time>
      </trkpt>
      <trkpt lat="42.7061" lon="1.40779">
        <ele>1481.05</ele>
        <time>2019-08-03T07:49:03Z</time>
      </trkpt>
      <trkpt lat="42.70603" lon="1.40787">
        <ele>1483.93</ele>
        <time>2019-08-03T07:49:36Z</time>
      </trkpt>
      <trkpt lat="42.70592" lon="1.40796">
        <ele>1488.26</ele>
        <time>2019-08-03T07:50:10Z</time>
      </trkpt>
      <trkpt lat="42.70577" lon="1.40805">
        <ele>1494.03</ele>
        <time>2019-08-03T07:50:54Z</time>
      </trkpt>
      <trkpt lat="42.70568" lon="1.40792">
        <ele>1499.79</ele>
        <time>2019-08-03T07:51:37Z</time>
      </trkpt>
      <trkpt lat="42.7056" lon="1.40765">
        <ele>1505.56</ele>
        <time>2019-08-03T07:52:24Z</time>
      </trkpt>
      <trkpt lat="42.70556" lon="1.40746">
        <ele>1509.41</ele>
        <time>2019-08-03T07:52:55Z</time>
      </trkpt>
      <trkpt lat="42.70554" lon="1.40735">
        <ele>1512.77</ele>
        <time>2019-08-03T07:53:27Z</time>
      </trkpt>
      <trkpt lat="42.70553" lon="1.40725">
        <ele>1516.14</ele>
        <time>2019-08-03T07:54:04Z</time>
      </trkpt>
      <trkpt lat="42.70538" lon="1.40719">
        <ele>1522.39</ele>
        <time>2019-08-03T07:55:00Z</time>
      </trkpt>
      <trkpt lat="42.70534" lon="1.40705">
        <ele>1525.27</ele>
        <time>2019-08-03T07:55:28Z</time>
      </trkpt>
      <trkpt lat="42.70529" lon="1.40685">
        <ele>1531.52</ele>
        <time>2019-08-03T07:56:14Z</time>
      </trkpt>
      <trkpt lat="42.70525" lon="1.40672">
        <ele>1536.8</ele>
        <time>2019-08-03T07:56:52Z</time>
      </trkpt>
      <trkpt lat="42.7052" lon="1.4066">
        <ele>1540.65</ele>
        <time>2019-08-03T07:57:23Z</time>
      </trkpt>
      <trkpt lat="42.70515" lon="1.40642">
        <ele>1543.05</ele>
        <time>2019-08-03T07:58:03Z</time>
      </trkpt>
      <trkpt lat="42.70515" lon="1.40645">
        <ele>1543.53</ele>
        <time>2019-08-03T08:02:10Z</time>
      </trkpt>
      <trkpt lat="42.70503" lon="1.40664">
        <ele>1549.78</ele>
        <time>2019-08-03T08:02:58Z</time>
      </trkpt>
      <trkpt lat="42.70494" lon="1.4066">
        <ele>1554.11</ele>
        <time>2019-08-03T08:03:32Z</time>
      </trkpt>
      <trkpt lat="42.70488" lon="1.40647">
        <ele>1560.84</ele>
        <time>2019-08-03T08:04:55Z</time>
      </trkpt>
      <trkpt lat="42.70473" lon="1.40649">
        <ele>1566.61</ele>
        <time>2019-08-03T08:05:37Z</time>
      </trkpt>
      <trkpt lat="42.70469" lon="1.40632">
        <ele>1569.97</ele>
        <time>2019-08-03T08:06:05Z</time>
      </trkpt>
      <trkpt lat="42.70463" lon="1.40639">
        <ele>1573.33</ele>
        <time>2019-08-03T08:06:24Z</time>
      </trkpt>
      <trkpt lat="42.70453" lon="1.40649">
        <ele>1578.14</ele>
        <time>2019-08-03T08:06:54Z</time>
      </trkpt>
      <trkpt lat="42.70445" lon="1.40651">
        <ele>1583.43</ele>
        <time>2019-08-03T08:07:38Z</time>
      </trkpt>
      <trkpt lat="42.70435" lon="1.40653">
        <ele>1588.24</ele>
        <time>2019-08-03T08:08:14Z</time>
      </trkpt>
      <trkpt lat="42.70425" lon="1.40646">
        <ele>1593.04</ele>
        <time>2019-08-03T08:08:50Z</time>
      </trkpt>
      <trkpt lat="42.70422" lon="1.40636">
        <ele>1596.89</ele>
        <time>2019-08-03T08:09:19Z</time>
      </trkpt>
      <trkpt lat="42.70417" lon="1.4064">
        <ele>1600.25</ele>
        <time>2019-08-03T08:09:43Z</time>
      </trkpt>
      <trkpt lat="42.70411" lon="1.40632">
        <ele>1606.02</ele>
        <time>2019-08-03T08:13:34Z</time>
      </trkpt>
      <trkpt lat="42.70403" lon="1.40624">
        <ele>1610.35</ele>
        <time>2019-08-03T08:14:05Z</time>
      </trkpt>
      <trkpt lat="42.70397" lon="1.4062">
        <ele>1613.71</ele>
        <time>2019-08-03T08:14:27Z</time>
      </trkpt>
      <trkpt lat="42.70392" lon="1.4061">
        <ele>1617.56</ele>
        <time>2019-08-03T08:14:54Z</time>
      </trkpt>
      <trkpt lat="42.70381" lon="1.40607">
        <ele>1622.36</ele>
        <time>2019-08-03T08:15:27Z</time>
      </trkpt>
      <trkpt lat="42.70373" lon="1.40606">
        <ele>1623.8</ele>
        <time>2019-08-03T08:15:44Z</time>
      </trkpt>
      <trkpt lat="42.70367" lon="1.406">
        <ele>1626.21</ele>
        <time>2019-08-03T08:16:02Z</time>
      </trkpt>
      <trkpt lat="42.70358" lon="1.40593">
        <ele>1629.09</ele>
        <time>2019-08-03T08:16:22Z</time>
      </trkpt>
      <trkpt lat="42.70349" lon="1.40587">
        <ele>1631.01</ele>
        <time>2019-08-03T08:16:45Z</time>
      </trkpt>
      <trkpt lat="42.7034" lon="1.40585">
        <ele>1634.86</ele>
        <time>2019-08-03T08:17:11Z</time>
      </trkpt>
      <trkpt lat="42.7033" lon="1.40583">
        <ele>1638.22</ele>
        <time>2019-08-03T08:17:34Z</time>
      </trkpt>
      <trkpt lat="42.70321" lon="1.40582">
        <ele>1641.11</ele>
        <time>2019-08-03T08:17:50Z</time>
      </trkpt>
      <trkpt lat="42.70313" lon="1.40581">
        <ele>1643.99</ele>
        <time>2019-08-03T08:18:11Z</time>
      </trkpt>
      <trkpt lat="42.70306" lon="1.40582">
        <ele>1645.91</ele>
        <time>2019-08-03T08:18:36Z</time>
      </trkpt>
      <trkpt lat="42.70297" lon="1.4058">
        <ele>1648.32</ele>
        <time>2019-08-03T08:18:57Z</time>
      </trkpt>
      <trkpt lat="42.70288" lon="1.40583">
        <ele>1651.2</ele>
        <time>2019-08-03T08:19:15Z</time>
      </trkpt>
      <trkpt lat="42.70277" lon="1.4058">
        <ele>1651.68</ele>
        <time>2019-08-03T08:19:29Z</time>
      </trkpt>
      <trkpt lat="42.70268" lon="1.40585">
        <ele>1654.57</ele>
        <time>2019-08-03T08:19:48Z</time>
      </trkpt>
      <trkpt lat="42.70258" lon="1.40578">
        <ele>1656.01</ele>
        <time>2019-08-03T08:20:05Z</time>
      </trkpt>
      <trkpt lat="42.70251" lon="1.4057">
        <ele>1657.93</ele>
        <time>2019-08-03T08:20:29Z</time>
      </trkpt>
      <trkpt lat="42.70244" lon="1.40567">
        <ele>1660.81</ele>
        <time>2019-08-03T08:20:56Z</time>
      </trkpt>
      <trkpt lat="42.70237" lon="1.40558">
        <ele>1662.74</ele>
        <time>2019-08-03T08:21:15Z</time>
      </trkpt>
      <trkpt lat="42.7024" lon="1.40569">
        <ele>1665.62</ele>
        <time>2019-08-03T08:21:34Z</time>
      </trkpt>
      <trkpt lat="42.70233" lon="1.40578">
        <ele>1668.51</ele>
        <time>2019-08-03T08:21:55Z</time>
      </trkpt>
      <trkpt lat="42.70234" lon="1.40591">
        <ele>1670.43</ele>
        <time>2019-08-03T08:22:11Z</time>
      </trkpt>
      <trkpt lat="42.7023" lon="1.40603">
        <ele>1673.79</ele>
        <time>2019-08-03T08:22:35Z</time>
      </trkpt>
      <trkpt lat="42.70227" lon="1.40612">
        <ele>1676.68</ele>
        <time>2019-08-03T08:23:06Z</time>
      </trkpt>
      <trkpt lat="42.70227" lon="1.40621">
        <ele>1679.08</ele>
        <time>2019-08-03T08:23:26Z</time>
      </trkpt>
      <trkpt lat="42.70228" lon="1.40631">
        <ele>1682.44</ele>
        <time>2019-08-03T08:23:53Z</time>
      </trkpt>
      <trkpt lat="42.70223" lon="1.40638">
        <ele>1684.85</ele>
        <time>2019-08-03T08:24:16Z</time>
      </trkpt>
      <trkpt lat="42.70216" lon="1.40644">
        <ele>1688.69</ele>
        <time>2019-08-03T08:24:45Z</time>
      </trkpt>
      <trkpt lat="42.70209" lon="1.40649">
        <ele>1692.06</ele>
        <time>2019-08-03T08:25:08Z</time>
      </trkpt>
      <trkpt lat="42.702" lon="1.40658">
        <ele>1694.46</ele>
        <time>2019-08-03T08:25:29Z</time>
      </trkpt>
      <trkpt lat="42.70195" lon="1.40654">
        <ele>1697.34</ele>
        <time>2019-08-03T08:25:48Z</time>
      </trkpt>
      <trkpt lat="42.70183" lon="1.40654">
        <ele>1700.23</ele>
        <time>2019-08-03T08:26:12Z</time>
      </trkpt>
      <trkpt lat="42.70174" lon="1.40655">
        <ele>1703.11</ele>
        <time>2019-08-03T08:26:38Z</time>
      </trkpt>
      <trkpt lat="42.70164" lon="1.4065">
        <ele>1707.92</ele>
        <time>2019-08-03T08:27:05Z</time>
      </trkpt>
      <trkpt lat="42.7016" lon="1.40652">
        <ele>1711.76</ele>
        <time>2019-08-03T08:27:32Z</time>
      </trkpt>
      <trkpt lat="42.7015" lon="1.4065">
        <ele>1715.61</ele>
        <time>2019-08-03T08:28:01Z</time>
      </trkpt>
      <trkpt lat="42.70141" lon="1.40651">
        <ele>1719.94</ele>
        <time>2019-08-03T08:28:29Z</time>
      </trkpt>
      <trkpt lat="42.70136" lon="1.40654">
        <ele>1723.78</ele>
        <time>2019-08-03T08:29:00Z</time>
      </trkpt>
      <trkpt lat="42.70132" lon="1.40663">
        <ele>1727.63</ele>
        <time>2019-08-03T08:29:28Z</time>
      </trkpt>
      <trkpt lat="42.70122" lon="1.40661">
        <ele>1732.43</ele>
        <time>2019-08-03T08:30:34Z</time>
      </trkpt>
      <trkpt lat="42.70113" lon="1.40657">
        <ele>1735.8</ele>
        <time>2019-08-03T08:30:56Z</time>
      </trkpt>
      <trkpt lat="42.70103" lon="1.40651">
        <ele>1739.64</ele>
        <time>2019-08-03T08:31:22Z</time>
      </trkpt>
      <trkpt lat="42.70097" lon="1.40641">
        <ele>1742.05</ele>
        <time>2019-08-03T08:31:43Z</time>
      </trkpt>
      <trkpt lat="42.70093" lon="1.40649">
        <ele>1744.93</ele>
        <time>2019-08-03T08:32:03Z</time>
      </trkpt>
      <trkpt lat="42.70089" lon="1.40642">
        <ele>1746.85</ele>
        <time>2019-08-03T08:32:22Z</time>
      </trkpt>
      <trkpt lat="42.70082" lon="1.40632">
        <ele>1748.78</ele>
        <time>2019-08-03T08:32:40Z</time>
      </trkpt>
      <trkpt lat="42.70075" lon="1.40626">
        <ele>1751.66</ele>
        <time>2019-08-03T08:33:01Z</time>
      </trkpt>
      <trkpt lat="42.70066" lon="1.40619">
        <ele>1754.54</ele>
        <time>2019-08-03T08:33:23Z</time>
      </trkpt>
      <trkpt lat="42.7006" lon="1.40613">
        <ele>1757.43</ele>
        <time>2019-08-03T08:33:44Z</time>
      </trkpt>
      <trkpt lat="42.7005" lon="1.40602">
        <ele>1760.79</ele>
        <time>2019-08-03T08:34:11Z</time>
      </trkpt>
      <trkpt lat="42.70038" lon="1.40601">
        <ele>1763.68</ele>
        <time>2019-08-03T08:34:38Z</time>
      </trkpt>
      <trkpt lat="42.70028" lon="1.40602">
        <ele>1767.04</ele>
        <time>2019-08-03T08:35:09Z</time>
      </trkpt>
      <trkpt lat="42.70029" lon="1.40608">
        <ele>1770.89</ele>
        <time>2019-08-03T08:35:34Z</time>
      </trkpt>
      <trkpt lat="42.70035" lon="1.40617">
        <ele>1771.85</ele>
        <time>2019-08-03T08:35:54Z</time>
      </trkpt>
      <trkpt lat="42.70027" lon="1.40625">
        <ele>1775.69</ele>
        <time>2019-08-03T08:36:20Z</time>
      </trkpt>
      <trkpt lat="42.70024" lon="1.40628">
        <ele>1779.06</ele>
        <time>2019-08-03T08:36:47Z</time>
      </trkpt>
      <trkpt lat="42.70032" lon="1.40635">
        <ele>1780.5</ele>
        <time>2019-08-03T08:37:02Z</time>
      </trkpt>
      <trkpt lat="42.70034" lon="1.40646">
        <ele>1782.9</ele>
        <time>2019-08-03T08:37:23Z</time>
      </trkpt>
      <trkpt lat="42.70037" lon="1.40657">
        <ele>1785.79</ele>
        <time>2019-08-03T08:37:48Z</time>
      </trkpt>
      <trkpt lat="42.70029" lon="1.4066">
        <ele>1788.67</ele>
        <time>2019-08-03T08:38:13Z</time>
      </trkpt>
      <trkpt lat="42.70022" lon="1.40663">
        <ele>1791.55</ele>
        <time>2019-08-03T08:38:35Z</time>
      </trkpt>
      <trkpt lat="42.70023" lon="1.40672">
        <ele>1794.44</ele>
        <time>2019-08-03T08:38:58Z</time>
      </trkpt>
      <trkpt lat="42.70015" lon="1.40679">
        <ele>1797.8</ele>
        <time>2019-08-03T08:39:26Z</time>
      </trkpt>
      <trkpt lat="42.70004" lon="1.40687">
        <ele>1799.73</ele>
        <time>2019-08-03T08:39:48Z</time>
      </trkpt>
      <trkpt lat="42.69999" lon="1.40695">
        <ele>1803.57</ele>
        <time>2019-08-03T08:40:16Z</time>
      </trkpt>
      <trkpt lat="42.69988" lon="1.40705">
        <ele>1807.42</ele>
        <time>2019-08-03T08:40:45Z</time>
      </trkpt>
      <trkpt lat="42.69979" lon="1.40714">
        <ele>1809.82</ele>
        <time>2019-08-03T08:41:07Z</time>
      </trkpt>
      <trkpt lat="42.69969" lon="1.40716">
        <ele>1812.22</ele>
        <time>2019-08-03T08:41:27Z</time>
      </trkpt>
      <trkpt lat="42.69966" lon="1.40721">
        <ele>1814.63</ele>
        <time>2019-08-03T08:42:51Z</time>
      </trkpt>
      <trkpt lat="42.69954" lon="1.40731">
        <ele>1818.95</ele>
        <time>2019-08-03T08:43:22Z</time>
      </trkpt>
      <trkpt lat="42.69946" lon="1.4074">
        <ele>1820.39</ele>
        <time>2019-08-03T08:43:48Z</time>
      </trkpt>
      <trkpt lat="42.69936" lon="1.40739">
        <ele>1824.24</ele>
        <time>2019-08-03T08:44:14Z</time>
      </trkpt>
      <trkpt lat="42.69926" lon="1.40745">
        <ele>1826.16</ele>
        <time>2019-08-03T08:44:37Z</time>
      </trkpt>
      <trkpt lat="42.69914" lon="1.4075">
        <ele>1830.01</ele>
        <time>2019-08-03T08:45:04Z</time>
      </trkpt>
      <trkpt lat="42.69909" lon="1.40757">
        <ele>1833.85</ele>
        <time>2019-08-03T08:45:33Z</time>
      </trkpt>
      <trkpt lat="42.69901" lon="1.40765">
        <ele>1836.26</ele>
        <time>2019-08-03T08:45:56Z</time>
      </trkpt>
      <trkpt lat="42.69896" lon="1.4077">
        <ele>1839.62</ele>
        <time>2019-08-03T08:46:27Z</time>
      </trkpt>
      <trkpt lat="42.6989" lon="1.40771">
        <ele>1843.95</ele>
        <time>2019-08-03T08:46:59Z</time>
      </trkpt>
      <trkpt lat="42.69884" lon="1.40775">
        <ele>1848.27</ele>
        <time>2019-08-03T08:47:38Z</time>
      </trkpt>
      <trkpt lat="42.69876" lon="1.4077">
        <ele>1852.6</ele>
        <time>2019-08-03T08:48:14Z</time>
      </trkpt>
      <trkpt lat="42.69866" lon="1.40769">
        <ele>1857.4</ele>
        <time>2019-08-03T08:48:56Z</time>
      </trkpt>
      <trkpt lat="42.69855" lon="1.4077">
        <ele>1861.25</ele>
        <time>2019-08-03T08:49:31Z</time>
      </trkpt>
      <trkpt lat="42.69845" lon="1.40774">
        <ele>1868.46</ele>
        <time>2019-08-03T08:50:24Z</time>
      </trkpt>
      <trkpt lat="42.69834" lon="1.40777">
        <ele>1873.75</ele>
        <time>2019-08-03T08:51:12Z</time>
      </trkpt>
      <trkpt lat="42.69823" lon="1.40782">
        <ele>1879.51</ele>
        <time>2019-08-03T08:51:56Z</time>
      </trkpt>
      <trkpt lat="42.69817" lon="1.40786">
        <ele>1882.88</ele>
        <time>2019-08-03T08:52:30Z</time>
      </trkpt>
      <trkpt lat="42.6981" lon="1.40801">
        <ele>1887.69</ele>
        <time>2019-08-03T08:53:05Z</time>
      </trkpt>
      <trkpt lat="42.69802" lon="1.40805">
        <ele>1890.57</ele>
        <time>2019-08-03T08:53:33Z</time>
      </trkpt>
      <trkpt lat="42.69794" lon="1.40805">
        <ele>1893.93</ele>
        <time>2019-08-03T08:54:01Z</time>
      </trkpt>
      <trkpt lat="42.69784" lon="1.40808">
        <ele>1898.74</ele>
        <time>2019-08-03T08:54:36Z</time>
      </trkpt>
      <trkpt lat="42.69773" lon="1.40811">
        <ele>1904.03</ele>
        <time>2019-08-03T08:55:22Z</time>
      </trkpt>
      <trkpt lat="42.69761" lon="1.4081">
        <ele>1908.83</ele>
        <time>2019-08-03T08:56:08Z</time>
      </trkpt>
      <trkpt lat="42.69753" lon="1.40812">
        <ele>1913.16</ele>
        <time>2019-08-03T08:56:42Z</time>
      </trkpt>
      <trkpt lat="42.69742" lon="1.40806">
        <ele>1916.53</ele>
        <time>2019-08-03T08:57:11Z</time>
      </trkpt>
      <trkpt lat="42.69733" lon="1.40801">
        <ele>1919.89</ele>
        <time>2019-08-03T08:57:39Z</time>
      </trkpt>
      <trkpt lat="42.69723" lon="1.40801">
        <ele>1922.29</ele>
        <time>2019-08-03T08:58:01Z</time>
      </trkpt>
      <trkpt lat="42.69715" lon="1.40802">
        <ele>1925.18</ele>
        <time>2019-08-03T08:58:19Z</time>
      </trkpt>
      <trkpt lat="42.69707" lon="1.40795">
        <ele>1927.1</ele>
        <time>2019-08-03T08:58:35Z</time>
      </trkpt>
      <trkpt lat="42.697" lon="1.4079">
        <ele>1927.1</ele>
        <time>2019-08-03T08:58:51Z</time>
      </trkpt>
      <trkpt lat="42.69697" lon="1.40776">
        <ele>1927.1</ele>
        <time>2019-08-03T08:59:10Z</time>
      </trkpt>
      <trkpt lat="42.69693" lon="1.40766">
        <ele>1927.58</ele>
        <time>2019-08-03T08:59:23Z</time>
      </trkpt>
      <trkpt lat="42.69689" lon="1.40753">
        <ele>1928.54</ele>
        <time>2019-08-03T08:59:44Z</time>
      </trkpt>
      <trkpt lat="42.69687" lon="1.40741">
        <ele>1928.06</ele>
        <time>2019-08-03T08:59:58Z</time>
      </trkpt>
      <trkpt lat="42.69686" lon="1.40729">
        <ele>1928.54</ele>
        <time>2019-08-03T09:00:12Z</time>
      </trkpt>
      <trkpt lat="42.69685" lon="1.40715">
        <ele>1929.02</ele>
        <time>2019-08-03T09:00:21Z</time>
      </trkpt>
      <trkpt lat="42.69681" lon="1.40703">
        <ele>1928.06</ele>
        <time>2019-08-03T09:00:30Z</time>
      </trkpt>
      <trkpt lat="42.69676" lon="1.4069">
        <ele>1927.58</ele>
        <time>2019-08-03T09:00:40Z</time>
      </trkpt>
      <trkpt lat="42.69669" lon="1.4068">
        <ele>1926.62</ele>
        <time>2019-08-03T09:00:50Z</time>
      </trkpt>
      <trkpt lat="42.69658" lon="1.4067">
        <ele>1926.62</ele>
        <time>2019-08-03T09:01:04Z</time>
      </trkpt>
      <trkpt lat="42.69647" lon="1.40659">
        <ele>1927.1</ele>
        <time>2019-08-03T09:01:23Z</time>
      </trkpt>
      <trkpt lat="42.69643" lon="1.40647">
        <ele>1928.06</ele>
        <time>2019-08-03T09:01:38Z</time>
      </trkpt>
      <trkpt lat="42.69638" lon="1.40641">
        <ele>1929.5</ele>
        <time>2019-08-03T09:01:58Z</time>
      </trkpt>
      <trkpt lat="42.69644" lon="1.4064">
        <ele>1928.54</ele>
        <time>2019-08-03T09:02:36Z</time>
      </trkpt>
      <trkpt lat="42.69648" lon="1.40638">
        <ele>1928.54</ele>
        <time>2019-08-03T09:03:50Z</time>
      </trkpt>
      <trkpt lat="42.69644" lon="1.40632">
        <ele>1930.46</ele>
        <time>2019-08-03T09:06:06Z</time>
      </trkpt>
      <trkpt lat="42.69635" lon="1.40623">
        <ele>1930.95</ele>
        <time>2019-08-03T09:06:12Z</time>
      </trkpt>
      <trkpt lat="42.6964" lon="1.40633">
        <ele>1931.43</ele>
        <time>2019-08-03T09:07:02Z</time>
      </trkpt>
      <trkpt lat="42.69641" lon="1.40631">
        <ele>1930.46</ele>
        <time>2019-08-03T09:10:03Z</time>
      </trkpt>
      <trkpt lat="42.69645" lon="1.40642">
        <ele>1930.95</ele>
        <time>2019-08-03T09:11:22Z</time>
      </trkpt>
      <trkpt lat="42.69644" lon="1.40639">
        <ele>1930.46</ele>
        <time>2019-08-03T09:11:42Z</time>
      </trkpt>
      <trkpt lat="42.69645" lon="1.40635">
        <ele>1930.46</ele>
        <time>2019-08-03T09:11:55Z</time>
      </trkpt>
      <trkpt lat="42.69647" lon="1.40638">
        <ele>1929.98</ele>
        <time>2019-08-03T09:12:09Z</time>
      </trkpt>
      <trkpt lat="42.69646" lon="1.40638">
        <ele>1930.95</ele>
        <time>2019-08-03T09:12:22Z</time>
      </trkpt>
      <trkpt lat="42.69649" lon="1.40643">
        <ele>1930.46</ele>
        <time>2019-08-03T09:12:34Z</time>
      </trkpt>
      <trkpt lat="42.69649" lon="1.40645">
        <ele>1930.95</ele>
        <time>2019-08-03T09:12:41Z</time>
      </trkpt>
      <trkpt lat="42.69639" lon="1.40649">
        <ele>1931.91</ele>
        <time>2019-08-03T09:13:51Z</time>
      </trkpt>
      <trkpt lat="42.6963" lon="1.40648">
        <ele>1931.43</ele>
        <time>2019-08-03T09:14:18Z</time>
      </trkpt>
      <trkpt lat="42.69628" lon="1.40645">
        <ele>1931.43</ele>
        <time>2019-08-03T09:14:47Z</time>
      </trkpt>
      <trkpt lat="42.6963" lon="1.4063">
        <ele>1929.98</ele>
        <time>2019-08-03T09:15:17Z</time>
      </trkpt>
      <trkpt lat="42.69629" lon="1.40616">
        <ele>1929.5</ele>
        <time>2019-08-03T09:15:27Z</time>
      </trkpt>
      <trkpt lat="42.69631" lon="1.40601">
        <ele>1929.02</ele>
        <time>2019-08-03T09:15:40Z</time>
      </trkpt>
      <trkpt lat="42.69638" lon="1.4059">
        <ele>1929.02</ele>
        <time>2019-08-03T09:15:52Z</time>
      </trkpt>
      <trkpt lat="42.69642" lon="1.40579">
        <ele>1931.91</ele>
        <time>2019-08-03T09:16:07Z</time>
      </trkpt>
      <trkpt lat="42.69646" lon="1.40568">
        <ele>1933.35</ele>
        <time>2019-08-03T09:16:20Z</time>
      </trkpt>
      <trkpt lat="42.6964" lon="1.4056">
        <ele>1936.71</ele>
        <time>2019-08-03T09:16:44Z</time>
      </trkpt>
      <trkpt lat="42.69633" lon="1.40554">
        <ele>1939.12</ele>
        <time>2019-08-03T09:17:05Z</time>
      </trkpt>
      <trkpt lat="42.69625" lon="1.40545">
        <ele>1942.96</ele>
        <time>2019-08-03T09:17:32Z</time>
      </trkpt>
      <trkpt lat="42.69615" lon="1.4054">
        <ele>1944.4</ele>
        <time>2019-08-03T09:18:32Z</time>
      </trkpt>
      <trkpt lat="42.69613" lon="1.40545">
        <ele>1948.73</ele>
        <time>2019-08-03T09:19:00Z</time>
      </trkpt>
      <trkpt lat="42.69609" lon="1.40532">
        <ele>1951.61</ele>
        <time>2019-08-03T09:19:20Z</time>
      </trkpt>
      <trkpt lat="42.69604" lon="1.40536">
        <ele>1954.5</ele>
        <time>2019-08-03T09:19:50Z</time>
      </trkpt>
      <trkpt lat="42.696" lon="1.40549">
        <ele>1960.27</ele>
        <time>2019-08-03T09:20:23Z</time>
      </trkpt>
      <trkpt lat="42.69592" lon="1.40549">
        <ele>1962.67</ele>
        <time>2019-08-03T09:20:45Z</time>
      </trkpt>
      <trkpt lat="42.69588" lon="1.40542">
        <ele>1965.55</ele>
        <time>2019-08-03T09:21:07Z</time>
      </trkpt>
      <trkpt lat="42.69589" lon="1.40547">
        <ele>1967.48</ele>
        <time>2019-08-03T09:21:30Z</time>
      </trkpt>
      <trkpt lat="42.69583" lon="1.40537">
        <ele>1970.36</ele>
        <time>2019-08-03T09:21:48Z</time>
      </trkpt>
      <trkpt lat="42.69575" lon="1.40542">
        <ele>1974.2</ele>
        <time>2019-08-03T09:22:16Z</time>
      </trkpt>
      <trkpt lat="42.69567" lon="1.40549">
        <ele>1976.61</ele>
        <time>2019-08-03T09:22:37Z</time>
      </trkpt>
      <trkpt lat="42.6956" lon="1.40552">
        <ele>1980.45</ele>
        <time>2019-08-03T09:23:02Z</time>
      </trkpt>
      <trkpt lat="42.69552" lon="1.40547">
        <ele>1983.34</ele>
        <time>2019-08-03T09:23:30Z</time>
      </trkpt>
      <trkpt lat="42.69546" lon="1.40543">
        <ele>1986.7</ele>
        <time>2019-08-03T09:24:03Z</time>
      </trkpt>
      <trkpt lat="42.69536" lon="1.40542">
        <ele>1990.07</ele>
        <time>2019-08-03T09:24:28Z</time>
      </trkpt>
      <trkpt lat="42.69533" lon="1.40543">
        <ele>1993.43</ele>
        <time>2019-08-03T09:24:49Z</time>
      </trkpt>
      <trkpt lat="42.69525" lon="1.40541">
        <ele>1995.83</ele>
        <time>2019-08-03T09:25:08Z</time>
      </trkpt>
      <trkpt lat="42.6952" lon="1.40547">
        <ele>1999.68</ele>
        <time>2019-08-03T09:25:34Z</time>
      </trkpt>
      <trkpt lat="42.6951" lon="1.40537">
        <ele>2002.56</ele>
        <time>2019-08-03T09:25:53Z</time>
      </trkpt>
      <trkpt lat="42.69503" lon="1.40542">
        <ele>2004.49</ele>
        <time>2019-08-03T09:26:08Z</time>
      </trkpt>
      <trkpt lat="42.69497" lon="1.40536">
        <ele>2007.85</ele>
        <time>2019-08-03T09:26:38Z</time>
      </trkpt>
      <trkpt lat="42.69484" lon="1.40535">
        <ele>2011.7</ele>
        <time>2019-08-03T09:26:57Z</time>
      </trkpt>
      <trkpt lat="42.69476" lon="1.40529">
        <ele>2016.02</ele>
        <time>2019-08-03T09:27:27Z</time>
      </trkpt>
      <trkpt lat="42.69467" lon="1.40523">
        <ele>2019.39</ele>
        <time>2019-08-03T09:27:50Z</time>
      </trkpt>
      <trkpt lat="42.69458" lon="1.40523">
        <ele>2022.75</ele>
        <time>2019-08-03T09:28:18Z</time>
      </trkpt>
      <trkpt lat="42.69447" lon="1.40519">
        <ele>2024.67</ele>
        <time>2019-08-03T09:28:40Z</time>
      </trkpt>
      <trkpt lat="42.69439" lon="1.40518">
        <ele>2028.04</ele>
        <time>2019-08-03T09:29:03Z</time>
      </trkpt>
      <trkpt lat="42.69432" lon="1.40514">
        <ele>2029.96</ele>
        <time>2019-08-03T09:29:18Z</time>
      </trkpt>
      <trkpt lat="42.69427" lon="1.40505">
        <ele>2029.96</ele>
        <time>2019-08-03T09:29:31Z</time>
      </trkpt>
      <trkpt lat="42.69418" lon="1.40501">
        <ele>2029.96</ele>
        <time>2019-08-03T09:29:41Z</time>
      </trkpt>
      <trkpt lat="42.69411" lon="1.40493">
        <ele>2030.44</ele>
        <time>2019-08-03T09:29:49Z</time>
      </trkpt>
      <trkpt lat="42.69406" lon="1.40486">
        <ele>2030.44</ele>
        <time>2019-08-03T09:29:57Z</time>
      </trkpt>
      <trkpt lat="42.69398" lon="1.4048">
        <ele>2029.96</ele>
        <time>2019-08-03T09:30:04Z</time>
      </trkpt>
      <trkpt lat="42.69391" lon="1.40476">
        <ele>2029.48</ele>
        <time>2019-08-03T09:30:12Z</time>
      </trkpt>
      <trkpt lat="42.69386" lon="1.40466">
        <ele>2029.96</ele>
        <time>2019-08-03T09:30:21Z</time>
      </trkpt>
      <trkpt lat="42.69379" lon="1.40456">
        <ele>2029</ele>
        <time>2019-08-03T09:30:31Z</time>
      </trkpt>
      <trkpt lat="42.69373" lon="1.40445">
        <ele>2029.96</ele>
        <time>2019-08-03T09:30:41Z</time>
      </trkpt>
      <trkpt lat="42.69365" lon="1.40442">
        <ele>2031.4</ele>
        <time>2019-08-03T09:30:51Z</time>
      </trkpt>
      <trkpt lat="42.69359" lon="1.40432">
        <ele>2033.33</ele>
        <time>2019-08-03T09:31:07Z</time>
      </trkpt>
      <trkpt lat="42.69354" lon="1.40424">
        <ele>2038.13</ele>
        <time>2019-08-03T09:31:32Z</time>
      </trkpt>
      <trkpt lat="42.69348" lon="1.40416">
        <ele>2040.05</ele>
        <time>2019-08-03T09:31:51Z</time>
      </trkpt>
      <trkpt lat="42.69343" lon="1.40404">
        <ele>2042.46</ele>
        <time>2019-08-03T09:32:13Z</time>
      </trkpt>
      <trkpt lat="42.69341" lon="1.40392">
        <ele>2043.9</ele>
        <time>2019-08-03T09:32:33Z</time>
      </trkpt>
      <trkpt lat="42.69331" lon="1.40384">
        <ele>2046.78</ele>
        <time>2019-08-03T09:32:55Z</time>
      </trkpt>
      <trkpt lat="42.69328" lon="1.40375">
        <ele>2049.19</ele>
        <time>2019-08-03T09:33:14Z</time>
      </trkpt>
      <trkpt lat="42.69324" lon="1.40359">
        <ele>2052.07</ele>
        <time>2019-08-03T09:33:39Z</time>
      </trkpt>
      <trkpt lat="42.69323" lon="1.40345">
        <ele>2054.96</ele>
        <time>2019-08-03T09:34:01Z</time>
      </trkpt>
      <trkpt lat="42.69323" lon="1.40334">
        <ele>2057.36</ele>
        <time>2019-08-03T09:34:30Z</time>
      </trkpt>
      <trkpt lat="42.69321" lon="1.40321">
        <ele>2060.24</ele>
        <time>2019-08-03T09:34:59Z</time>
      </trkpt>
      <trkpt lat="42.69318" lon="1.40305">
        <ele>2062.17</ele>
        <time>2019-08-03T09:35:26Z</time>
      </trkpt>
      <trkpt lat="42.69314" lon="1.40291">
        <ele>2065.05</ele>
        <time>2019-08-03T09:35:50Z</time>
      </trkpt>
      <trkpt lat="42.69306" lon="1.40286">
        <ele>2067.93</ele>
        <time>2019-08-03T09:36:11Z</time>
      </trkpt>
      <trkpt lat="42.69301" lon="1.4028">
        <ele>2071.3</ele>
        <time>2019-08-03T09:37:09Z</time>
      </trkpt>
      <trkpt lat="42.69292" lon="1.40279">
        <ele>2075.62</ele>
        <time>2019-08-03T09:38:01Z</time>
      </trkpt>
      <trkpt lat="42.69284" lon="1.40277">
        <ele>2079.47</ele>
        <time>2019-08-03T09:38:33Z</time>
      </trkpt>
      <trkpt lat="42.69274" lon="1.40277">
        <ele>2082.83</ele>
        <time>2019-08-03T09:39:01Z</time>
      </trkpt>
      <trkpt lat="42.69275" lon="1.40265">
        <ele>2086.68</ele>
        <time>2019-08-03T09:39:32Z</time>
      </trkpt>
      <trkpt lat="42.69281" lon="1.40255">
        <ele>2088.6</ele>
        <time>2019-08-03T09:39:52Z</time>
      </trkpt>
      <trkpt lat="42.6928" lon="1.40243">
        <ele>2091</ele>
        <time>2019-08-03T09:40:11Z</time>
      </trkpt>
      <trkpt lat="42.69275" lon="1.40233">
        <ele>2091.97</ele>
        <time>2019-08-03T09:40:39Z</time>
      </trkpt>
      <trkpt lat="42.69264" lon="1.40218">
        <ele>2096.77</ele>
        <time>2019-08-03T09:41:12Z</time>
      </trkpt>
      <trkpt lat="42.69249" lon="1.402">
        <ele>2101.1</ele>
        <time>2019-08-03T09:42:09Z</time>
      </trkpt>
      <trkpt lat="42.69242" lon="1.40189">
        <ele>2103.5</ele>
        <time>2019-08-03T09:42:30Z</time>
      </trkpt>
      <trkpt lat="42.69239" lon="1.402">
        <ele>2105.91</ele>
        <time>2019-08-03T09:42:45Z</time>
      </trkpt>
      <trkpt lat="42.69235" lon="1.40208">
        <ele>2108.31</ele>
        <time>2019-08-03T09:43:05Z</time>
      </trkpt>
      <trkpt lat="42.69231" lon="1.40197">
        <ele>2111.19</ele>
        <time>2019-08-03T09:43:29Z</time>
      </trkpt>
      <trkpt lat="42.69225" lon="1.40186">
        <ele>2113.6</ele>
        <time>2019-08-03T09:43:52Z</time>
      </trkpt>
      <trkpt lat="42.69219" lon="1.40175">
        <ele>2117.44</ele>
        <time>2019-08-03T09:44:43Z</time>
      </trkpt>
      <trkpt lat="42.69211" lon="1.40164">
        <ele>2122.73</ele>
        <time>2019-08-03T09:45:17Z</time>
      </trkpt>
      <trkpt lat="42.69208" lon="1.40147">
        <ele>2126.57</ele>
        <time>2019-08-03T09:45:48Z</time>
      </trkpt>
      <trkpt lat="42.692" lon="1.40136">
        <ele>2130.9</ele>
        <time>2019-08-03T09:46:27Z</time>
      </trkpt>
      <trkpt lat="42.69194" lon="1.40124">
        <ele>2135.71</ele>
        <time>2019-08-03T09:47:03Z</time>
      </trkpt>
      <trkpt lat="42.69193" lon="1.4011">
        <ele>2138.59</ele>
        <time>2019-08-03T09:47:24Z</time>
      </trkpt>
      <trkpt lat="42.69188" lon="1.40098">
        <ele>2142.44</ele>
        <time>2019-08-03T09:47:47Z</time>
      </trkpt>
      <trkpt lat="42.6918" lon="1.40079">
        <ele>2145.32</ele>
        <time>2019-08-03T09:48:19Z</time>
      </trkpt>
      <trkpt lat="42.69176" lon="1.40072">
        <ele>2148.2</ele>
        <time>2019-08-03T09:49:08Z</time>
      </trkpt>
      <trkpt lat="42.69172" lon="1.40059">
        <ele>2152.05</ele>
        <time>2019-08-03T09:49:34Z</time>
      </trkpt>
      <trkpt lat="42.69173" lon="1.40045">
        <ele>2153.49</ele>
        <time>2019-08-03T09:49:55Z</time>
      </trkpt>
      <trkpt lat="42.69166" lon="1.40043">
        <ele>2157.34</ele>
        <time>2019-08-03T09:50:15Z</time>
      </trkpt>
      <trkpt lat="42.69159" lon="1.40031">
        <ele>2162.14</ele>
        <time>2019-08-03T09:51:00Z</time>
      </trkpt>
      <trkpt lat="42.69155" lon="1.40028">
        <ele>2165.03</ele>
        <time>2019-08-03T09:52:04Z</time>
      </trkpt>
      <trkpt lat="42.69153" lon="1.40016">
        <ele>2169.83</ele>
        <time>2019-08-03T09:52:30Z</time>
      </trkpt>
      <trkpt lat="42.69152" lon="1.40001">
        <ele>2174.64</ele>
        <time>2019-08-03T09:53:02Z</time>
      </trkpt>
      <trkpt lat="42.69143" lon="1.40005">
        <ele>2177.52</ele>
        <time>2019-08-03T09:53:39Z</time>
      </trkpt>
      <trkpt lat="42.69142" lon="1.39988">
        <ele>2181.85</ele>
        <time>2019-08-03T09:54:10Z</time>
      </trkpt>
      <trkpt lat="42.69146" lon="1.39976">
        <ele>2182.33</ele>
        <time>2019-08-03T09:54:30Z</time>
      </trkpt>
      <trkpt lat="42.69146" lon="1.39962">
        <ele>2183.29</ele>
        <time>2019-08-03T09:54:43Z</time>
      </trkpt>
      <trkpt lat="42.69149" lon="1.39948">
        <ele>2184.73</ele>
        <time>2019-08-03T09:54:56Z</time>
      </trkpt>
      <trkpt lat="42.69152" lon="1.39935">
        <ele>2186.66</ele>
        <time>2019-08-03T09:55:11Z</time>
      </trkpt>
      <trkpt lat="42.69151" lon="1.39924">
        <ele>2190.5</ele>
        <time>2019-08-03T09:55:33Z</time>
      </trkpt>
      <trkpt lat="42.69154" lon="1.39909">
        <ele>2191.94</ele>
        <time>2019-08-03T09:55:51Z</time>
      </trkpt>
      <trkpt lat="42.69151" lon="1.39895">
        <ele>2193.87</ele>
        <time>2019-08-03T09:56:11Z</time>
      </trkpt>
      <trkpt lat="42.69149" lon="1.39878">
        <ele>2197.23</ele>
        <time>2019-08-03T09:56:40Z</time>
      </trkpt>
      <trkpt lat="42.69149" lon="1.39864">
        <ele>2199.63</ele>
        <time>2019-08-03T09:57:05Z</time>
      </trkpt>
      <trkpt lat="42.69144" lon="1.39852">
        <ele>2201.56</ele>
        <time>2019-08-03T09:57:27Z</time>
      </trkpt>
      <trkpt lat="42.69142" lon="1.3984">
        <ele>2204.92</ele>
        <time>2019-08-03T09:57:56Z</time>
      </trkpt>
      <trkpt lat="42.69134" lon="1.39826">
        <ele>2208.29</ele>
        <time>2019-08-03T09:58:21Z</time>
      </trkpt>
      <trkpt lat="42.6913" lon="1.39809">
        <ele>2213.09</ele>
        <time>2019-08-03T09:59:03Z</time>
      </trkpt>
      <trkpt lat="42.69129" lon="1.39799">
        <ele>2215.5</ele>
        <time>2019-08-03T09:59:26Z</time>
      </trkpt>
      <trkpt lat="42.69128" lon="1.39788">
        <ele>2218.86</ele>
        <time>2019-08-03T10:00:13Z</time>
      </trkpt>
      <trkpt lat="42.69129" lon="1.39776">
        <ele>2221.74</ele>
        <time>2019-08-03T10:00:39Z</time>
      </trkpt>
      <trkpt lat="42.6913" lon="1.39763">
        <ele>2224.63</ele>
        <time>2019-08-03T10:01:13Z</time>
      </trkpt>
      <trkpt lat="42.69134" lon="1.3975">
        <ele>2227.51</ele>
        <time>2019-08-03T10:01:44Z</time>
      </trkpt>
      <trkpt lat="42.69132" lon="1.39739">
        <ele>2228.95</ele>
        <time>2019-08-03T10:03:24Z</time>
      </trkpt>
      <trkpt lat="42.6914" lon="1.39726">
        <ele>2227.99</ele>
        <time>2019-08-03T10:07:14Z</time>
      </trkpt>
      <trkpt lat="42.6914" lon="1.39712">
        <ele>2227.03</ele>
        <time>2019-08-03T10:07:31Z</time>
      </trkpt>
      <trkpt lat="42.69136" lon="1.39698">
        <ele>2224.63</ele>
        <time>2019-08-03T10:07:58Z</time>
      </trkpt>
      <trkpt lat="42.69135" lon="1.39689">
        <ele>2224.15</ele>
        <time>2019-08-03T10:08:07Z</time>
      </trkpt>
      <trkpt lat="42.69133" lon="1.39681">
        <ele>2223.67</ele>
        <time>2019-08-03T10:08:13Z</time>
      </trkpt>
      <trkpt lat="42.69131" lon="1.39671">
        <ele>2224.63</ele>
        <time>2019-08-03T10:08:26Z</time>
      </trkpt>
      <trkpt lat="42.69133" lon="1.39659">
        <ele>2227.99</ele>
        <time>2019-08-03T10:08:53Z</time>
      </trkpt>
      <trkpt lat="42.69133" lon="1.39659">
        <ele>2227.99</ele>
        <time>2019-08-03T10:09:31Z</time>
      </trkpt>
      <trkpt lat="42.69128" lon="1.39655">
        <ele>2228.47</ele>
        <time>2019-08-03T10:09:51Z</time>
      </trkpt>
      <trkpt lat="42.69119" lon="1.39653">
        <ele>2228.95</ele>
        <time>2019-08-03T10:11:27Z</time>
      </trkpt>
      <trkpt lat="42.69127" lon="1.39652">
        <ele>2228.47</ele>
        <time>2019-08-03T10:11:47Z</time>
      </trkpt>
      <trkpt lat="42.69136" lon="1.39651">
        <ele>2228.47</ele>
        <time>2019-08-03T10:12:07Z</time>
      </trkpt>
      <trkpt lat="42.69129" lon="1.39661">
        <ele>2228.47</ele>
        <time>2019-08-03T10:12:49Z</time>
      </trkpt>
      <trkpt lat="42.69135" lon="1.39659">
        <ele>2227.99</ele>
        <time>2019-08-03T10:13:57Z</time>
      </trkpt>
      <trkpt lat="42.69133" lon="1.39661">
        <ele>2230.4</ele>
        <time>2019-08-03T10:19:06Z</time>
      </trkpt>
      <trkpt lat="42.6913" lon="1.39659">
        <ele>2232.32</ele>
        <time>2019-08-03T10:27:13Z</time>
      </trkpt>
      <trkpt lat="42.69131" lon="1.39658">
        <ele>2231.84</ele>
        <time>2019-08-03T10:31:19Z</time>
      </trkpt>
      <trkpt lat="42.69139" lon="1.39658">
        <ele>2232.32</ele>
        <time>2019-08-03T10:32:47Z</time>
      </trkpt>
      <trkpt lat="42.69139" lon="1.39664">
        <ele>2232.8</ele>
        <time>2019-08-03T10:33:52Z</time>
      </trkpt>
      <trkpt lat="42.69143" lon="1.3966">
        <ele>2232.8</ele>
        <time>2019-08-03T10:34:30Z</time>
      </trkpt>
      <trkpt lat="42.69136" lon="1.39658">
        <ele>2233.28</ele>
        <time>2019-08-03T10:34:39Z</time>
      </trkpt>
      <trkpt lat="42.69131" lon="1.39654">
        <ele>2232.8</ele>
        <time>2019-08-03T10:34:47Z</time>
      </trkpt>
      <trkpt lat="42.69131" lon="1.39658">
        <ele>2235.68</ele>
        <time>2019-08-03T10:41:48Z</time>
      </trkpt>
      <trkpt lat="42.69128" lon="1.39651">
        <ele>2235.68</ele>
        <time>2019-08-03T10:42:56Z</time>
      </trkpt>
      <trkpt lat="42.6913" lon="1.39658">
        <ele>2236.16</ele>
        <time>2019-08-03T10:44:08Z</time>
      </trkpt>
      <trkpt lat="42.69123" lon="1.39666">
        <ele>2235.68</ele>
        <time>2019-08-03T10:44:50Z</time>
      </trkpt>
      <trkpt lat="42.6913" lon="1.39659">
        <ele>2235.2</ele>
        <time>2019-08-03T10:48:56Z</time>
      </trkpt>
      <trkpt lat="42.69129" lon="1.39671">
        <ele>2234.24</ele>
        <time>2019-08-03T10:51:07Z</time>
      </trkpt>
      <trkpt lat="42.69123" lon="1.3967">
        <ele>2232.32</ele>
        <time>2019-08-03T10:51:25Z</time>
      </trkpt>
      <trkpt lat="42.6913" lon="1.39651">
        <ele>2231.84</ele>
        <time>2019-08-03T10:51:48Z</time>
      </trkpt>
      <trkpt lat="42.69136" lon="1.39658">
        <ele>2232.8</ele>
        <time>2019-08-03T10:53:33Z</time>
      </trkpt>
      <trkpt lat="42.69118" lon="1.39656">
        <ele>2231.84</ele>
        <time>2019-08-03T10:55:46Z</time>
      </trkpt>
      <trkpt lat="42.69122" lon="1.39668">
        <ele>2232.32</ele>
        <time>2019-08-03T10:56:13Z</time>
      </trkpt>
      <trkpt lat="42.69118" lon="1.39683">
        <ele>2229.92</ele>
        <time>2019-08-03T10:56:28Z</time>
      </trkpt>
      <trkpt lat="42.69109" lon="1.39686">
        <ele>2228.47</ele>
        <time>2019-08-03T10:56:41Z</time>
      </trkpt>
      <trkpt lat="42.691" lon="1.39684">
        <ele>2227.99</ele>
        <time>2019-08-03T10:56:56Z</time>
      </trkpt>
      <trkpt lat="42.69091" lon="1.39674">
        <ele>2227.03</ele>
        <time>2019-08-03T10:57:11Z</time>
      </trkpt>
      <trkpt lat="42.69077" lon="1.39666">
        <ele>2224.63</ele>
        <time>2019-08-03T10:57:30Z</time>
      </trkpt>
      <trkpt lat="42.69067" lon="1.39676">
        <ele>2224.15</ele>
        <time>2019-08-03T10:57:47Z</time>
      </trkpt>
      <trkpt lat="42.69064" lon="1.39678">
        <ele>2224.63</ele>
        <time>2019-08-03T10:58:08Z</time>
      </trkpt>
      <trkpt lat="42.69064" lon="1.39663">
        <ele>2224.15</ele>
        <time>2019-08-03T10:58:27Z</time>
      </trkpt>
      <trkpt lat="42.69061" lon="1.3965">
        <ele>2223.19</ele>
        <time>2019-08-03T10:58:42Z</time>
      </trkpt>
      <trkpt lat="42.69052" lon="1.39637">
        <ele>2222.71</ele>
        <time>2019-08-03T10:58:57Z</time>
      </trkpt>
      <trkpt lat="42.69044" lon="1.39626">
        <ele>2223.67</ele>
        <time>2019-08-03T10:59:21Z</time>
      </trkpt>
      <trkpt lat="42.69036" lon="1.39619">
        <ele>2227.51</ele>
        <time>2019-08-03T11:00:48Z</time>
      </trkpt>
      <trkpt lat="42.69036" lon="1.39607">
        <ele>2230.88</ele>
        <time>2019-08-03T11:01:23Z</time>
      </trkpt>
      <trkpt lat="42.69027" lon="1.39591">
        <ele>2233.76</ele>
        <time>2019-08-03T11:01:46Z</time>
      </trkpt>
      <trkpt lat="42.69021" lon="1.396">
        <ele>2237.13</ele>
        <time>2019-08-03T11:02:24Z</time>
      </trkpt>
      <trkpt lat="42.69022" lon="1.39604">
        <ele>2238.57</ele>
        <time>2019-08-03T11:10:25Z</time>
      </trkpt>
      <trkpt lat="42.69028" lon="1.39604">
        <ele>2239.53</ele>
        <time>2019-08-03T11:11:29Z</time>
      </trkpt>
      <trkpt lat="42.69025" lon="1.39604">
        <ele>2240.49</ele>
        <time>2019-08-03T11:19:37Z</time>
      </trkpt>
      <trkpt lat="42.69025" lon="1.39606">
        <ele>2240.49</ele>
        <time>2019-08-03T11:21:24Z</time>
      </trkpt>
      <trkpt lat="42.69025" lon="1.39605">
        <ele>2240.49</ele>
        <time>2019-08-03T11:21:40Z</time>
      </trkpt>
      <trkpt lat="42.69021" lon="1.39601">
        <ele>2238.57</ele>
        <time>2019-08-03T11:23:51Z</time>
      </trkpt>
      <trkpt lat="42.69028" lon="1.39591">
        <ele>2238.09</ele>
        <time>2019-08-03T11:24:25Z</time>
      </trkpt>
      <trkpt lat="42.69038" lon="1.39582">
        <ele>2236.16</ele>
        <time>2019-08-03T11:24:42Z</time>
      </trkpt>
      <trkpt lat="42.69039" lon="1.39577">
        <ele>2234.72</ele>
        <time>2019-08-03T11:24:59Z</time>
      </trkpt>
      <trkpt lat="42.69044" lon="1.39564">
        <ele>2235.2</ele>
        <time>2019-08-03T11:25:13Z</time>
      </trkpt>
      <trkpt lat="42.69051" lon="1.39551">
        <ele>2237.13</ele>
        <time>2019-08-03T11:25:26Z</time>
      </trkpt>
      <trkpt lat="42.69056" lon="1.39539">
        <ele>2238.57</ele>
        <time>2019-08-03T11:25:40Z</time>
      </trkpt>
      <trkpt lat="42.69064" lon="1.39527">
        <ele>2238.57</ele>
        <time>2019-08-03T11:25:58Z</time>
      </trkpt>
      <trkpt lat="42.69069" lon="1.39515">
        <ele>2239.53</ele>
        <time>2019-08-03T11:26:14Z</time>
      </trkpt>
      <trkpt lat="42.69077" lon="1.3951">
        <ele>2238.09</ele>
        <time>2019-08-03T11:27:34Z</time>
      </trkpt>
      <trkpt lat="42.69084" lon="1.39514">
        <ele>2235.2</ele>
        <time>2019-08-03T11:27:49Z</time>
      </trkpt>
      <trkpt lat="42.69091" lon="1.39521">
        <ele>2234.72</ele>
        <time>2019-08-03T11:28:03Z</time>
      </trkpt>
      <trkpt lat="42.69101" lon="1.39515">
        <ele>2234.24</ele>
        <time>2019-08-03T11:28:17Z</time>
      </trkpt>
      <trkpt lat="42.69104" lon="1.39529">
        <ele>2234.72</ele>
        <time>2019-08-03T11:28:30Z</time>
      </trkpt>
      <trkpt lat="42.69109" lon="1.39539">
        <ele>2233.28</ele>
        <time>2019-08-03T11:28:44Z</time>
      </trkpt>
      <trkpt lat="42.69119" lon="1.39544">
        <ele>2231.84</ele>
        <time>2019-08-03T11:28:59Z</time>
      </trkpt>
      <trkpt lat="42.69124" lon="1.39554">
        <ele>2228.95</ele>
        <time>2019-08-03T11:29:18Z</time>
      </trkpt>
      <trkpt lat="42.69128" lon="1.39565">
        <ele>2226.07</ele>
        <time>2019-08-03T11:29:37Z</time>
      </trkpt>
      <trkpt lat="42.69128" lon="1.39575">
        <ele>2224.15</ele>
        <time>2019-08-03T11:29:51Z</time>
      </trkpt>
      <trkpt lat="42.69135" lon="1.39584">
        <ele>2224.15</ele>
        <time>2019-08-03T11:30:44Z</time>
      </trkpt>
      <trkpt lat="42.69136" lon="1.39584">
        <ele>2185.21</ele>
        <time>2019-08-03T11:31:35Z</time>
      </trkpt>
      <trkpt lat="42.69148" lon="1.39571">
        <ele>2185.21</ele>
        <time>2019-08-03T11:32:50Z</time>
      </trkpt>
      <trkpt lat="42.6917" lon="1.39564">
        <ele>2179.93</ele>
        <time>2019-08-03T11:33:38Z</time>
      </trkpt>
      <trkpt lat="42.69182" lon="1.39561">
        <ele>2177.04</ele>
        <time>2019-08-03T11:34:05Z</time>
      </trkpt>
      <trkpt lat="42.69195" lon="1.39564">
        <ele>2174.16</ele>
        <time>2019-08-03T11:34:25Z</time>
      </trkpt>
      <trkpt lat="42.69204" lon="1.39565">
        <ele>2170.79</ele>
        <time>2019-08-03T11:34:43Z</time>
      </trkpt>
      <trkpt lat="42.69225" lon="1.39562">
        <ele>2163.1</ele>
        <time>2019-08-03T11:36:17Z</time>
      </trkpt>
      <trkpt lat="42.69237" lon="1.39565">
        <ele>2158.78</ele>
        <time>2019-08-03T11:36:51Z</time>
      </trkpt>
      <trkpt lat="42.69242" lon="1.39575">
        <ele>2157.34</ele>
        <time>2019-08-03T11:37:07Z</time>
      </trkpt>
      <trkpt lat="42.69249" lon="1.39584">
        <ele>2153.97</ele>
        <time>2019-08-03T11:37:32Z</time>
      </trkpt>
      <trkpt lat="42.69255" lon="1.39588">
        <ele>2151.09</ele>
        <time>2019-08-03T11:37:53Z</time>
      </trkpt>
      <trkpt lat="42.69265" lon="1.3959">
        <ele>2147.24</ele>
        <time>2019-08-03T11:38:17Z</time>
      </trkpt>
      <trkpt lat="42.6927" lon="1.39598">
        <ele>2144.84</ele>
        <time>2019-08-03T11:38:41Z</time>
      </trkpt>
      <trkpt lat="42.69277" lon="1.39596">
        <ele>2141.47</ele>
        <time>2019-08-03T11:39:00Z</time>
      </trkpt>
      <trkpt lat="42.69281" lon="1.39597">
        <ele>2139.55</ele>
        <time>2019-08-03T11:39:25Z</time>
      </trkpt>
      <trkpt lat="42.69288" lon="1.39601">
        <ele>2137.15</ele>
        <time>2019-08-03T11:39:45Z</time>
      </trkpt>
      <trkpt lat="42.69296" lon="1.39599">
        <ele>2134.74</ele>
        <time>2019-08-03T11:40:02Z</time>
      </trkpt>
      <trkpt lat="42.69295" lon="1.39609">
        <ele>2131.38</ele>
        <time>2019-08-03T11:40:47Z</time>
      </trkpt>
      <trkpt lat="42.69297" lon="1.3962">
        <ele>2128.98</ele>
        <time>2019-08-03T11:41:08Z</time>
      </trkpt>
      <trkpt lat="42.69298" lon="1.3963">
        <ele>2126.09</ele>
        <time>2019-08-03T11:41:34Z</time>
      </trkpt>
      <trkpt lat="42.69303" lon="1.39638">
        <ele>2122.25</ele>
        <time>2019-08-03T11:42:01Z</time>
      </trkpt>
      <trkpt lat="42.69309" lon="1.39625">
        <ele>2117.92</ele>
        <time>2019-08-03T11:42:41Z</time>
      </trkpt>
      <trkpt lat="42.69316" lon="1.39629">
        <ele>2113.6</ele>
        <time>2019-08-03T11:43:28Z</time>
      </trkpt>
      <trkpt lat="42.6932" lon="1.39638">
        <ele>2110.23</ele>
        <time>2019-08-03T11:43:53Z</time>
      </trkpt>
      <trkpt lat="42.69326" lon="1.3963">
        <ele>2107.35</ele>
        <time>2019-08-03T11:44:16Z</time>
      </trkpt>
      <trkpt lat="42.69332" lon="1.39627">
        <ele>2103.98</ele>
        <time>2019-08-03T11:44:42Z</time>
      </trkpt>
      <trkpt lat="42.69337" lon="1.39634">
        <ele>2100.62</ele>
        <time>2019-08-03T11:45:12Z</time>
      </trkpt>
      <trkpt lat="42.69343" lon="1.3964">
        <ele>2097.25</ele>
        <time>2019-08-03T11:45:36Z</time>
      </trkpt>
      <trkpt lat="42.69349" lon="1.39644">
        <ele>2094.85</ele>
        <time>2019-08-03T11:45:57Z</time>
      </trkpt>
      <trkpt lat="42.69358" lon="1.39639">
        <ele>2090.52</ele>
        <time>2019-08-03T11:46:23Z</time>
      </trkpt>
      <trkpt lat="42.69361" lon="1.39627">
        <ele>2087.64</ele>
        <time>2019-08-03T11:46:43Z</time>
      </trkpt>
      <trkpt lat="42.69369" lon="1.39627">
        <ele>2085.72</ele>
        <time>2019-08-03T11:47:05Z</time>
      </trkpt>
      <trkpt lat="42.69376" lon="1.39624">
        <ele>2081.87</ele>
        <time>2019-08-03T11:47:38Z</time>
      </trkpt>
      <trkpt lat="42.69385" lon="1.3962">
        <ele>2079.95</ele>
        <time>2019-08-03T11:47:56Z</time>
      </trkpt>
      <trkpt lat="42.69393" lon="1.39612">
        <ele>2077.55</ele>
        <time>2019-08-03T11:48:21Z</time>
      </trkpt>
      <trkpt lat="42.69402" lon="1.39612">
        <ele>2074.18</ele>
        <time>2019-08-03T11:48:39Z</time>
      </trkpt>
      <trkpt lat="42.69409" lon="1.39608">
        <ele>2071.3</ele>
        <time>2019-08-03T11:48:57Z</time>
      </trkpt>
      <trkpt lat="42.69417" lon="1.39606">
        <ele>2068.41</ele>
        <time>2019-08-03T11:49:17Z</time>
      </trkpt>
      <trkpt lat="42.69423" lon="1.39597">
        <ele>2066.49</ele>
        <time>2019-08-03T11:49:32Z</time>
      </trkpt>
      <trkpt lat="42.69433" lon="1.39598">
        <ele>2065.53</ele>
        <time>2019-08-03T11:49:47Z</time>
      </trkpt>
      <trkpt lat="42.69439" lon="1.39592">
        <ele>2064.09</ele>
        <time>2019-08-03T11:50:03Z</time>
      </trkpt>
      <trkpt lat="42.69447" lon="1.39586">
        <ele>2060.24</ele>
        <time>2019-08-03T11:50:19Z</time>
      </trkpt>
      <trkpt lat="42.69451" lon="1.39594">
        <ele>2058.32</ele>
        <time>2019-08-03T11:50:44Z</time>
      </trkpt>
      <trkpt lat="42.69458" lon="1.39598">
        <ele>2054.96</ele>
        <time>2019-08-03T11:51:02Z</time>
      </trkpt>
      <trkpt lat="42.69464" lon="1.39598">
        <ele>2052.07</ele>
        <time>2019-08-03T11:51:32Z</time>
      </trkpt>
      <trkpt lat="42.69469" lon="1.39606">
        <ele>2049.67</ele>
        <time>2019-08-03T11:51:57Z</time>
      </trkpt>
      <trkpt lat="42.69473" lon="1.39616">
        <ele>2046.3</ele>
        <time>2019-08-03T11:52:16Z</time>
      </trkpt>
      <trkpt lat="42.69482" lon="1.39614">
        <ele>2044.38</ele>
        <time>2019-08-03T11:52:31Z</time>
      </trkpt>
      <trkpt lat="42.69491" lon="1.39618">
        <ele>2041.5</ele>
        <time>2019-08-03T11:52:47Z</time>
      </trkpt>
      <trkpt lat="42.69499" lon="1.3962">
        <ele>2038.61</ele>
        <time>2019-08-03T11:53:06Z</time>
      </trkpt>
      <trkpt lat="42.69507" lon="1.39618">
        <ele>2034.77</ele>
        <time>2019-08-03T11:53:26Z</time>
      </trkpt>
      <trkpt lat="42.69509" lon="1.39609">
        <ele>2033.33</ele>
        <time>2019-08-03T11:53:53Z</time>
      </trkpt>
      <trkpt lat="42.69513" lon="1.39603">
        <ele>2029.96</ele>
        <time>2019-08-03T11:54:16Z</time>
      </trkpt>
      <trkpt lat="42.69517" lon="1.39608">
        <ele>2027.08</ele>
        <time>2019-08-03T11:54:42Z</time>
      </trkpt>
      <trkpt lat="42.69523" lon="1.39601">
        <ele>2023.23</ele>
        <time>2019-08-03T11:55:08Z</time>
      </trkpt>
      <trkpt lat="42.6953" lon="1.396">
        <ele>2019.87</ele>
        <time>2019-08-03T11:55:30Z</time>
      </trkpt>
      <trkpt lat="42.69535" lon="1.39611">
        <ele>2016.02</ele>
        <time>2019-08-03T11:55:54Z</time>
      </trkpt>
      <trkpt lat="42.69543" lon="1.39614">
        <ele>2012.66</ele>
        <time>2019-08-03T11:56:13Z</time>
      </trkpt>
      <trkpt lat="42.6955" lon="1.39615">
        <ele>2010.73</ele>
        <time>2019-08-03T11:56:33Z</time>
      </trkpt>
      <trkpt lat="42.69555" lon="1.39615">
        <ele>2007.37</ele>
        <time>2019-08-03T11:56:47Z</time>
      </trkpt>
      <trkpt lat="42.69563" lon="1.39621">
        <ele>2004.97</ele>
        <time>2019-08-03T11:57:04Z</time>
      </trkpt>
      <trkpt lat="42.69569" lon="1.39626">
        <ele>2000.64</ele>
        <time>2019-08-03T11:57:28Z</time>
      </trkpt>
      <trkpt lat="42.69576" lon="1.39634">
        <ele>1996.8</ele>
        <time>2019-08-03T11:57:53Z</time>
      </trkpt>
      <trkpt lat="42.69585" lon="1.39636">
        <ele>1993.91</ele>
        <time>2019-08-03T11:58:11Z</time>
      </trkpt>
      <trkpt lat="42.69592" lon="1.39642">
        <ele>1991.99</ele>
        <time>2019-08-03T11:58:32Z</time>
      </trkpt>
      <trkpt lat="42.69602" lon="1.39646">
        <ele>1989.59</ele>
        <time>2019-08-03T11:58:47Z</time>
      </trkpt>
      <trkpt lat="42.69607" lon="1.39652">
        <ele>1988.62</ele>
        <time>2019-08-03T11:59:12Z</time>
      </trkpt>
      <trkpt lat="42.69614" lon="1.39659">
        <ele>1987.18</ele>
        <time>2019-08-03T11:59:27Z</time>
      </trkpt>
      <trkpt lat="42.69622" lon="1.39665">
        <ele>1983.82</ele>
        <time>2019-08-03T11:59:44Z</time>
      </trkpt>
      <trkpt lat="42.69625" lon="1.39675">
        <ele>1981.9</ele>
        <time>2019-08-03T12:00:06Z</time>
      </trkpt>
      <trkpt lat="42.69632" lon="1.39671">
        <ele>1978.53</ele>
        <time>2019-08-03T12:00:37Z</time>
      </trkpt>
      <trkpt lat="42.69636" lon="1.39676">
        <ele>1973.72</ele>
        <time>2019-08-03T12:01:02Z</time>
      </trkpt>
      <trkpt lat="42.69641" lon="1.39682">
        <ele>1969.88</ele>
        <time>2019-08-03T12:01:59Z</time>
      </trkpt>
      <trkpt lat="42.69645" lon="1.39692">
        <ele>1964.59</ele>
        <time>2019-08-03T12:02:24Z</time>
      </trkpt>
      <trkpt lat="42.6965" lon="1.39699">
        <ele>1961.23</ele>
        <time>2019-08-03T12:02:47Z</time>
      </trkpt>
      <trkpt lat="42.69658" lon="1.39698">
        <ele>1957.86</ele>
        <time>2019-08-03T12:03:09Z</time>
      </trkpt>
      <trkpt lat="42.69662" lon="1.39707">
        <ele>1953.06</ele>
        <time>2019-08-03T12:03:37Z</time>
      </trkpt>
      <trkpt lat="42.69671" lon="1.39706">
        <ele>1949.69</ele>
        <time>2019-08-03T12:04:02Z</time>
      </trkpt>
      <trkpt lat="42.69676" lon="1.39708">
        <ele>1947.29</ele>
        <time>2019-08-03T12:05:00Z</time>
      </trkpt>
      <trkpt lat="42.69686" lon="1.3971">
        <ele>1943.44</ele>
        <time>2019-08-03T12:05:29Z</time>
      </trkpt>
      <trkpt lat="42.6969" lon="1.3972">
        <ele>1941.52</ele>
        <time>2019-08-03T12:05:59Z</time>
      </trkpt>
      <trkpt lat="42.69695" lon="1.3973">
        <ele>1939.12</ele>
        <time>2019-08-03T12:06:14Z</time>
      </trkpt>
      <trkpt lat="42.69701" lon="1.39736">
        <ele>1938.16</ele>
        <time>2019-08-03T12:06:39Z</time>
      </trkpt>
      <trkpt lat="42.69703" lon="1.39742">
        <ele>1937.67</ele>
        <time>2019-08-03T12:07:54Z</time>
      </trkpt>
      <trkpt lat="42.69705" lon="1.39754">
        <ele>1937.19</ele>
        <time>2019-08-03T12:08:07Z</time>
      </trkpt>
      <trkpt lat="42.69702" lon="1.39768">
        <ele>1932.87</ele>
        <time>2019-08-03T12:08:21Z</time>
      </trkpt>
      <trkpt lat="42.69702" lon="1.39781">
        <ele>1929.98</ele>
        <time>2019-08-03T12:08:38Z</time>
      </trkpt>
      <trkpt lat="42.69705" lon="1.39793">
        <ele>1927.1</ele>
        <time>2019-08-03T12:08:52Z</time>
      </trkpt>
      <trkpt lat="42.69708" lon="1.39807">
        <ele>1924.22</ele>
        <time>2019-08-03T12:09:09Z</time>
      </trkpt>
      <trkpt lat="42.69706" lon="1.39818">
        <ele>1923.25</ele>
        <time>2019-08-03T12:09:26Z</time>
      </trkpt>
      <trkpt lat="42.69705" lon="1.39833">
        <ele>1921.81</ele>
        <time>2019-08-03T12:09:39Z</time>
      </trkpt>
      <trkpt lat="42.697" lon="1.39846">
        <ele>1921.81</ele>
        <time>2019-08-03T12:09:53Z</time>
      </trkpt>
      <trkpt lat="42.69694" lon="1.39858">
        <ele>1920.85</ele>
        <time>2019-08-03T12:10:05Z</time>
      </trkpt>
      <trkpt lat="42.69687" lon="1.39863">
        <ele>1917.97</ele>
        <time>2019-08-03T12:10:31Z</time>
      </trkpt>
      <trkpt lat="42.69688" lon="1.39872">
        <ele>1913.16</ele>
        <time>2019-08-03T12:11:05Z</time>
      </trkpt>
      <trkpt lat="42.69689" lon="1.39881">
        <ele>1908.35</ele>
        <time>2019-08-03T12:11:43Z</time>
      </trkpt>
      <trkpt lat="42.69688" lon="1.39892">
        <ele>1903.07</ele>
        <time>2019-08-03T12:12:20Z</time>
      </trkpt>
      <trkpt lat="42.69693" lon="1.39903">
        <ele>1898.74</ele>
        <time>2019-08-03T12:12:49Z</time>
      </trkpt>
      <trkpt lat="42.69694" lon="1.39917">
        <ele>1894.42</ele>
        <time>2019-08-03T12:13:21Z</time>
      </trkpt>
      <trkpt lat="42.69695" lon="1.39929">
        <ele>1890.09</ele>
        <time>2019-08-03T12:13:55Z</time>
      </trkpt>
      <trkpt lat="42.6969" lon="1.39938">
        <ele>1886.24</ele>
        <time>2019-08-03T12:14:20Z</time>
      </trkpt>
      <trkpt lat="42.69693" lon="1.3995">
        <ele>1882.4</ele>
        <time>2019-08-03T12:15:20Z</time>
      </trkpt>
      <trkpt lat="42.69695" lon="1.39963">
        <ele>1878.07</ele>
        <time>2019-08-03T12:15:43Z</time>
      </trkpt>
      <trkpt lat="42.69692" lon="1.3997">
        <ele>1875.19</ele>
        <time>2019-08-03T12:16:22Z</time>
      </trkpt>
      <trkpt lat="42.69686" lon="1.39987">
        <ele>1869.9</ele>
        <time>2019-08-03T12:16:52Z</time>
      </trkpt>
      <trkpt lat="42.69687" lon="1.4">
        <ele>1868.46</ele>
        <time>2019-08-03T12:17:08Z</time>
      </trkpt>
      <trkpt lat="42.69696" lon="1.40004">
        <ele>1866.54</ele>
        <time>2019-08-03T12:17:39Z</time>
      </trkpt>
      <trkpt lat="42.697" lon="1.40015">
        <ele>1864.61</ele>
        <time>2019-08-03T12:17:57Z</time>
      </trkpt>
      <trkpt lat="42.6971" lon="1.4002">
        <ele>1861.73</ele>
        <time>2019-08-03T12:18:18Z</time>
      </trkpt>
      <trkpt lat="42.69717" lon="1.40027">
        <ele>1859.33</ele>
        <time>2019-08-03T12:18:43Z</time>
      </trkpt>
      <trkpt lat="42.69727" lon="1.40033">
        <ele>1855</ele>
        <time>2019-08-03T12:19:11Z</time>
      </trkpt>
      <trkpt lat="42.69737" lon="1.40037">
        <ele>1852.12</ele>
        <time>2019-08-03T12:19:39Z</time>
      </trkpt>
      <trkpt lat="42.69746" lon="1.40048">
        <ele>1850.19</ele>
        <time>2019-08-03T12:20:03Z</time>
      </trkpt>
      <trkpt lat="42.69754" lon="1.40058">
        <ele>1846.83</ele>
        <time>2019-08-03T12:20:39Z</time>
      </trkpt>
      <trkpt lat="42.69762" lon="1.40062">
        <ele>1844.91</ele>
        <time>2019-08-03T12:20:59Z</time>
      </trkpt>
      <trkpt lat="42.69771" lon="1.40072">
        <ele>1842.02</ele>
        <time>2019-08-03T12:21:30Z</time>
      </trkpt>
      <trkpt lat="42.6978" lon="1.40081">
        <ele>1840.58</ele>
        <time>2019-08-03T12:21:56Z</time>
      </trkpt>
      <trkpt lat="42.69785" lon="1.40099">
        <ele>1836.26</ele>
        <time>2019-08-03T12:22:25Z</time>
      </trkpt>
      <trkpt lat="42.69786" lon="1.40114">
        <ele>1835.29</ele>
        <time>2019-08-03T12:22:45Z</time>
      </trkpt>
      <trkpt lat="42.69789" lon="1.40128">
        <ele>1833.85</ele>
        <time>2019-08-03T12:23:02Z</time>
      </trkpt>
      <trkpt lat="42.69795" lon="1.40142">
        <ele>1831.45</ele>
        <time>2019-08-03T12:23:22Z</time>
      </trkpt>
      <trkpt lat="42.69803" lon="1.40155">
        <ele>1830.01</ele>
        <time>2019-08-03T12:23:39Z</time>
      </trkpt>
      <trkpt lat="42.69806" lon="1.4017">
        <ele>1830.01</ele>
        <time>2019-08-03T12:23:55Z</time>
      </trkpt>
      <trkpt lat="42.69815" lon="1.40175">
        <ele>1827.12</ele>
        <time>2019-08-03T12:24:11Z</time>
      </trkpt>
      <trkpt lat="42.69822" lon="1.40185">
        <ele>1825.68</ele>
        <time>2019-08-03T12:24:25Z</time>
      </trkpt>
      <trkpt lat="42.69833" lon="1.40184">
        <ele>1824.24</ele>
        <time>2019-08-03T12:24:37Z</time>
      </trkpt>
      <trkpt lat="42.69842" lon="1.40184">
        <ele>1819.43</ele>
        <time>2019-08-03T12:25:02Z</time>
      </trkpt>
      <trkpt lat="42.6985" lon="1.40184">
        <ele>1816.55</ele>
        <time>2019-08-03T12:25:20Z</time>
      </trkpt>
      <trkpt lat="42.69855" lon="1.40174">
        <ele>1814.15</ele>
        <time>2019-08-03T12:25:40Z</time>
      </trkpt>
      <trkpt lat="42.69863" lon="1.40171">
        <ele>1811.26</ele>
        <time>2019-08-03T12:26:00Z</time>
      </trkpt>
      <trkpt lat="42.69873" lon="1.40168">
        <ele>1811.26</ele>
        <time>2019-08-03T12:26:10Z</time>
      </trkpt>
      <trkpt lat="42.6988" lon="1.4017">
        <ele>1810.3</ele>
        <time>2019-08-03T12:26:23Z</time>
      </trkpt>
      <trkpt lat="42.69889" lon="1.40171">
        <ele>1809.34</ele>
        <time>2019-08-03T12:26:34Z</time>
      </trkpt>
      <trkpt lat="42.69897" lon="1.40174">
        <ele>1808.38</ele>
        <time>2019-08-03T12:26:46Z</time>
      </trkpt>
      <trkpt lat="42.69905" lon="1.40179">
        <ele>1806.45</ele>
        <time>2019-08-03T12:26:58Z</time>
      </trkpt>
      <trkpt lat="42.69913" lon="1.40182">
        <ele>1804.05</ele>
        <time>2019-08-03T12:27:11Z</time>
      </trkpt>
      <trkpt lat="42.6992" lon="1.40189">
        <ele>1802.61</ele>
        <time>2019-08-03T12:27:26Z</time>
      </trkpt>
      <trkpt lat="42.69927" lon="1.40195">
        <ele>1800.21</ele>
        <time>2019-08-03T12:27:40Z</time>
      </trkpt>
      <trkpt lat="42.69935" lon="1.40197">
        <ele>1797.32</ele>
        <time>2019-08-03T12:27:55Z</time>
      </trkpt>
      <trkpt lat="42.69943" lon="1.40206">
        <ele>1795.4</ele>
        <time>2019-08-03T12:28:10Z</time>
      </trkpt>
      <trkpt lat="42.69946" lon="1.4022">
        <ele>1793.96</ele>
        <time>2019-08-03T12:28:25Z</time>
      </trkpt>
      <trkpt lat="42.69952" lon="1.4023">
        <ele>1791.55</ele>
        <time>2019-08-03T12:28:38Z</time>
      </trkpt>
      <trkpt lat="42.69956" lon="1.40243">
        <ele>1789.63</ele>
        <time>2019-08-03T12:28:51Z</time>
      </trkpt>
      <trkpt lat="42.6996" lon="1.40254">
        <ele>1787.71</ele>
        <time>2019-08-03T12:29:05Z</time>
      </trkpt>
      <trkpt lat="42.69964" lon="1.40264">
        <ele>1784.34</ele>
        <time>2019-08-03T12:29:21Z</time>
      </trkpt>
      <trkpt lat="42.69969" lon="1.40278">
        <ele>1781.94</ele>
        <time>2019-08-03T12:29:34Z</time>
      </trkpt>
      <trkpt lat="42.69973" lon="1.4029">
        <ele>1779.54</ele>
        <time>2019-08-03T12:29:52Z</time>
      </trkpt>
      <trkpt lat="42.69978" lon="1.40302">
        <ele>1776.65</ele>
        <time>2019-08-03T12:30:08Z</time>
      </trkpt>
      <trkpt lat="42.69985" lon="1.40313">
        <ele>1774.25</ele>
        <time>2019-08-03T12:30:26Z</time>
      </trkpt>
      <trkpt lat="42.69994" lon="1.40323">
        <ele>1771.85</ele>
        <time>2019-08-03T12:30:39Z</time>
      </trkpt>
      <trkpt lat="42.70004" lon="1.40334">
        <ele>1769.92</ele>
        <time>2019-08-03T12:31:29Z</time>
      </trkpt>
      <trkpt lat="42.70009" lon="1.40344">
        <ele>1768.48</ele>
        <time>2019-08-03T12:31:41Z</time>
      </trkpt>
      <trkpt lat="42.70016" lon="1.40357">
        <ele>1767.52</ele>
        <time>2019-08-03T12:32:08Z</time>
      </trkpt>
      <trkpt lat="42.70022" lon="1.40365">
        <ele>1764.16</ele>
        <time>2019-08-03T12:32:25Z</time>
      </trkpt>
      <trkpt lat="42.70027" lon="1.40373">
        <ele>1763.2</ele>
        <time>2019-08-03T12:32:43Z</time>
      </trkpt>
      <trkpt lat="42.70033" lon="1.40385">
        <ele>1761.27</ele>
        <time>2019-08-03T12:32:57Z</time>
      </trkpt>
      <trkpt lat="42.70039" lon="1.40397">
        <ele>1759.35</ele>
        <time>2019-08-03T12:33:12Z</time>
      </trkpt>
      <trkpt lat="42.70048" lon="1.40399">
        <ele>1755.99</ele>
        <time>2019-08-03T12:33:29Z</time>
      </trkpt>
      <trkpt lat="42.70055" lon="1.40407">
        <ele>1752.62</ele>
        <time>2019-08-03T12:33:46Z</time>
      </trkpt>
      <trkpt lat="42.70061" lon="1.40422">
        <ele>1751.18</ele>
        <time>2019-08-03T12:34:09Z</time>
      </trkpt>
      <trkpt lat="42.70067" lon="1.40434">
        <ele>1747.81</ele>
        <time>2019-08-03T12:34:29Z</time>
      </trkpt>
      <trkpt lat="42.70076" lon="1.40433">
        <ele>1742.53</ele>
        <time>2019-08-03T12:34:54Z</time>
      </trkpt>
      <trkpt lat="42.70084" lon="1.40447">
        <ele>1740.12</ele>
        <time>2019-08-03T12:35:11Z</time>
      </trkpt>
      <trkpt lat="42.70089" lon="1.40458">
        <ele>1739.16</ele>
        <time>2019-08-03T12:35:22Z</time>
      </trkpt>
      <trkpt lat="42.70096" lon="1.40466">
        <ele>1737.72</ele>
        <time>2019-08-03T12:35:34Z</time>
      </trkpt>
      <trkpt lat="42.70104" lon="1.40467">
        <ele>1735.8</ele>
        <time>2019-08-03T12:35:51Z</time>
      </trkpt>
      <trkpt lat="42.70111" lon="1.40473">
        <ele>1732.91</ele>
        <time>2019-08-03T12:36:06Z</time>
      </trkpt>
      <trkpt lat="42.70119" lon="1.40481">
        <ele>1731.95</ele>
        <time>2019-08-03T12:36:21Z</time>
      </trkpt>
      <trkpt lat="42.70123" lon="1.40493">
        <ele>1730.03</ele>
        <time>2019-08-03T12:36:35Z</time>
      </trkpt>
      <trkpt lat="42.70129" lon="1.40504">
        <ele>1729.07</ele>
        <time>2019-08-03T12:36:48Z</time>
      </trkpt>
      <trkpt lat="42.70135" lon="1.40511">
        <ele>1725.22</ele>
        <time>2019-08-03T12:37:09Z</time>
      </trkpt>
      <trkpt lat="42.70137" lon="1.40515">
        <ele>1720.9</ele>
        <time>2019-08-03T12:37:38Z</time>
      </trkpt>
      <trkpt lat="42.70143" lon="1.40525">
        <ele>1718.01</ele>
        <time>2019-08-03T12:38:15Z</time>
      </trkpt>
      <trkpt lat="42.70149" lon="1.40528">
        <ele>1713.69</ele>
        <time>2019-08-03T12:38:40Z</time>
      </trkpt>
      <trkpt lat="42.70157" lon="1.40531">
        <ele>1709.36</ele>
        <time>2019-08-03T12:38:55Z</time>
      </trkpt>
      <trkpt lat="42.70166" lon="1.40533">
        <ele>1706.48</ele>
        <time>2019-08-03T12:39:10Z</time>
      </trkpt>
      <trkpt lat="42.70171" lon="1.40548">
        <ele>1705.04</ele>
        <time>2019-08-03T12:39:26Z</time>
      </trkpt>
      <trkpt lat="42.70179" lon="1.40551">
        <ele>1701.19</ele>
        <time>2019-08-03T12:39:47Z</time>
      </trkpt>
      <trkpt lat="42.70188" lon="1.40553">
        <ele>1698.31</ele>
        <time>2019-08-03T12:40:02Z</time>
      </trkpt>
      <trkpt lat="42.702" lon="1.40555">
        <ele>1695.42</ele>
        <time>2019-08-03T12:40:15Z</time>
      </trkpt>
      <trkpt lat="42.7021" lon="1.40556">
        <ele>1694.46</ele>
        <time>2019-08-03T12:40:26Z</time>
      </trkpt>
      <trkpt lat="42.7022" lon="1.40555">
        <ele>1693.5</ele>
        <time>2019-08-03T12:40:38Z</time>
      </trkpt>
      <trkpt lat="42.70229" lon="1.40554">
        <ele>1692.06</ele>
        <time>2019-08-03T12:40:48Z</time>
      </trkpt>
      <trkpt lat="42.70238" lon="1.40559">
        <ele>1691.58</ele>
        <time>2019-08-03T12:40:57Z</time>
      </trkpt>
      <trkpt lat="42.70246" lon="1.40566">
        <ele>1689.65</ele>
        <time>2019-08-03T12:41:14Z</time>
      </trkpt>
      <trkpt lat="42.70249" lon="1.4057">
        <ele>1685.33</ele>
        <time>2019-08-03T12:41:54Z</time>
      </trkpt>
      <trkpt lat="42.70255" lon="1.40575">
        <ele>1683.89</ele>
        <time>2019-08-03T12:43:02Z</time>
      </trkpt>
      <trkpt lat="42.70262" lon="1.40585">
        <ele>1681.48</ele>
        <time>2019-08-03T12:43:25Z</time>
      </trkpt>
      <trkpt lat="42.70272" lon="1.40586">
        <ele>1680.52</ele>
        <time>2019-08-03T12:43:37Z</time>
      </trkpt>
      <trkpt lat="42.70282" lon="1.40583">
        <ele>1678.12</ele>
        <time>2019-08-03T12:43:52Z</time>
      </trkpt>
      <trkpt lat="42.70291" lon="1.40585">
        <ele>1677.16</ele>
        <time>2019-08-03T12:44:17Z</time>
      </trkpt>
      <trkpt lat="42.70301" lon="1.40582">
        <ele>1675.72</ele>
        <time>2019-08-03T12:44:34Z</time>
      </trkpt>
      <trkpt lat="42.70308" lon="1.40583">
        <ele>1672.35</ele>
        <time>2019-08-03T12:44:49Z</time>
      </trkpt>
      <trkpt lat="42.70317" lon="1.40583">
        <ele>1670.43</ele>
        <time>2019-08-03T12:45:05Z</time>
      </trkpt>
      <trkpt lat="42.70326" lon="1.40583">
        <ele>1666.58</ele>
        <time>2019-08-03T12:45:18Z</time>
      </trkpt>
      <trkpt lat="42.70336" lon="1.40587">
        <ele>1664.18</ele>
        <time>2019-08-03T12:45:44Z</time>
      </trkpt>
      <trkpt lat="42.70345" lon="1.40587">
        <ele>1661.3</ele>
        <time>2019-08-03T12:45:58Z</time>
      </trkpt>
      <trkpt lat="42.70354" lon="1.40592">
        <ele>1657.93</ele>
        <time>2019-08-03T12:46:16Z</time>
      </trkpt>
      <trkpt lat="42.70364" lon="1.40598">
        <ele>1655.05</ele>
        <time>2019-08-03T12:46:30Z</time>
      </trkpt>
      <trkpt lat="42.70372" lon="1.40606">
        <ele>1653.12</ele>
        <time>2019-08-03T12:46:41Z</time>
      </trkpt>
      <trkpt lat="42.7038" lon="1.4061">
        <ele>1650.72</ele>
        <time>2019-08-03T12:46:56Z</time>
      </trkpt>
      <trkpt lat="42.70388" lon="1.40608">
        <ele>1647.36</ele>
        <time>2019-08-03T12:47:15Z</time>
      </trkpt>
      <trkpt lat="42.70395" lon="1.40612">
        <ele>1644.95</ele>
        <time>2019-08-03T12:47:33Z</time>
      </trkpt>
      <trkpt lat="42.70402" lon="1.40626">
        <ele>1641.11</ele>
        <time>2019-08-03T12:47:56Z</time>
      </trkpt>
      <trkpt lat="42.7041" lon="1.40637">
        <ele>1635.34</ele>
        <time>2019-08-03T12:48:25Z</time>
      </trkpt>
      <trkpt lat="42.70418" lon="1.40637">
        <ele>1631.98</ele>
        <time>2019-08-03T12:48:43Z</time>
      </trkpt>
      <trkpt lat="42.70426" lon="1.40645">
        <ele>1627.65</ele>
        <time>2019-08-03T12:49:05Z</time>
      </trkpt>
      <trkpt lat="42.70434" lon="1.4066">
        <ele>1621.88</ele>
        <time>2019-08-03T12:49:51Z</time>
      </trkpt>
      <trkpt lat="42.70446" lon="1.4066">
        <ele>1614.67</ele>
        <time>2019-08-03T12:50:40Z</time>
      </trkpt>
      <trkpt lat="42.7046" lon="1.40643">
        <ele>1606.98</ele>
        <time>2019-08-03T12:51:18Z</time>
      </trkpt>
      <trkpt lat="42.7047" lon="1.40637">
        <ele>1603.62</ele>
        <time>2019-08-03T12:51:59Z</time>
      </trkpt>
      <trkpt lat="42.70474" lon="1.40656">
        <ele>1598.81</ele>
        <time>2019-08-03T12:52:25Z</time>
      </trkpt>
      <trkpt lat="42.70488" lon="1.40651">
        <ele>1594</ele>
        <time>2019-08-03T12:52:50Z</time>
      </trkpt>
      <trkpt lat="42.70498" lon="1.40664">
        <ele>1587.75</ele>
        <time>2019-08-03T12:53:55Z</time>
      </trkpt>
      <trkpt lat="42.70507" lon="1.40663">
        <ele>1581.99</ele>
        <time>2019-08-03T12:54:30Z</time>
      </trkpt>
      <trkpt lat="42.70522" lon="1.40671">
        <ele>1573.33</ele>
        <time>2019-08-03T12:55:19Z</time>
      </trkpt>
      <trkpt lat="42.70528" lon="1.40688">
        <ele>1567.09</ele>
        <time>2019-08-03T12:55:53Z</time>
      </trkpt>
      <trkpt lat="42.70537" lon="1.40717">
        <ele>1559.4</ele>
        <time>2019-08-03T12:56:38Z</time>
      </trkpt>
      <trkpt lat="42.70538" lon="1.40742">
        <ele>1553.15</ele>
        <time>2019-08-03T12:57:11Z</time>
      </trkpt>
      <trkpt lat="42.7056" lon="1.40733">
        <ele>1545.94</ele>
        <time>2019-08-03T12:57:47Z</time>
      </trkpt>
      <trkpt lat="42.70562" lon="1.4076">
        <ele>1540.17</ele>
        <time>2019-08-03T12:58:24Z</time>
      </trkpt>
      <trkpt lat="42.70568" lon="1.40802">
        <ele>1530.56</ele>
        <time>2019-08-03T12:59:23Z</time>
      </trkpt>
      <trkpt lat="42.7058" lon="1.40808">
        <ele>1523.83</ele>
        <time>2019-08-03T13:00:02Z</time>
      </trkpt>
      <trkpt lat="42.70604" lon="1.40794">
        <ele>1515.18</ele>
        <time>2019-08-03T13:00:47Z</time>
      </trkpt>
      <trkpt lat="42.70613" lon="1.40788">
        <ele>1511.81</ele>
        <time>2019-08-03T13:01:15Z</time>
      </trkpt>
      <trkpt lat="42.70622" lon="1.40798">
        <ele>1508.45</ele>
        <time>2019-08-03T13:01:38Z</time>
      </trkpt>
      <trkpt lat="42.70636" lon="1.40811">
        <ele>1502.68</ele>
        <time>2019-08-03T13:02:11Z</time>
      </trkpt>
      <trkpt lat="42.70643" lon="1.40832">
        <ele>1497.39</ele>
        <time>2019-08-03T13:02:39Z</time>
      </trkpt>
      <trkpt lat="42.70649" lon="1.40855">
        <ele>1493.55</ele>
        <time>2019-08-03T13:03:03Z</time>
      </trkpt>
      <trkpt lat="42.70651" lon="1.40876">
        <ele>1489.22</ele>
        <time>2019-08-03T13:04:29Z</time>
      </trkpt>
      <trkpt lat="42.70649" lon="1.40917">
        <ele>1483.45</ele>
        <time>2019-08-03T13:05:24Z</time>
      </trkpt>
      <trkpt lat="42.70647" lon="1.40958">
        <ele>1477.2</ele>
        <time>2019-08-03T13:05:56Z</time>
      </trkpt>
      <trkpt lat="42.70649" lon="1.40992">
        <ele>1472.4</ele>
        <time>2019-08-03T13:06:27Z</time>
      </trkpt>
      <trkpt lat="42.70652" lon="1.41026">
        <ele>1468.07</ele>
        <time>2019-08-03T13:06:55Z</time>
      </trkpt>
      <trkpt lat="42.70659" lon="1.41048">
        <ele>1463.26</ele>
        <time>2019-08-03T13:07:24Z</time>
      </trkpt>
      <trkpt lat="42.70668" lon="1.4102">
        <ele>1459.42</ele>
        <time>2019-08-03T13:07:51Z</time>
      </trkpt>
      <trkpt lat="42.70675" lon="1.41044">
        <ele>1451.25</ele>
        <time>2019-08-03T13:10:56Z</time>
      </trkpt>
      <trkpt lat="42.70687" lon="1.41086">
        <ele>1441.15</ele>
        <time>2019-08-03T13:11:52Z</time>
      </trkpt>
      <trkpt lat="42.70696" lon="1.41133">
        <ele>1432.98</ele>
        <time>2019-08-03T13:12:53Z</time>
      </trkpt>
      <trkpt lat="42.70696" lon="1.41181">
        <ele>1422.41</ele>
        <time>2019-08-03T13:13:53Z</time>
      </trkpt>
      <trkpt lat="42.70694" lon="1.41211">
        <ele>1418.56</ele>
        <time>2019-08-03T13:14:21Z</time>
      </trkpt>
      <trkpt lat="42.70689" lon="1.41236">
        <ele>1415.68</ele>
        <time>2019-08-03T13:14:45Z</time>
      </trkpt>
      <trkpt lat="42.70683" lon="1.41256">
        <ele>1414.24</ele>
        <time>2019-08-03T13:15:09Z</time>
      </trkpt>
      <trkpt lat="42.70683" lon="1.41284">
        <ele>1411.35</ele>
        <time>2019-08-03T13:15:34Z</time>
      </trkpt>
      <trkpt lat="42.70685" lon="1.41315">
        <ele>1409.91</ele>
        <time>2019-08-03T13:15:56Z</time>
      </trkpt>
      <trkpt lat="42.70682" lon="1.41343">
        <ele>1406.07</ele>
        <time>2019-08-03T13:16:24Z</time>
      </trkpt>
      <trkpt lat="42.70677" lon="1.41365">
        <ele>1404.62</ele>
        <time>2019-08-03T13:16:43Z</time>
      </trkpt>
      <trkpt lat="42.70679" lon="1.41397">
        <ele>1401.26</ele>
        <time>2019-08-03T13:17:09Z</time>
      </trkpt>
      <trkpt lat="42.70675" lon="1.41421">
        <ele>1401.74</ele>
        <time>2019-08-03T13:17:37Z</time>
      </trkpt>
      <trkpt lat="42.70672" lon="1.41448">
        <ele>1400.78</ele>
        <time>2019-08-03T13:18:00Z</time>
      </trkpt>
      <trkpt lat="42.70672" lon="1.41474">
        <ele>1400.78</ele>
        <time>2019-08-03T13:18:19Z</time>
      </trkpt>
      <trkpt lat="42.70674" lon="1.41493">
        <ele>1398.37</ele>
        <time>2019-08-03T13:18:38Z</time>
      </trkpt>
      <trkpt lat="42.70671" lon="1.41512">
        <ele>1398.37</ele>
        <time>2019-08-03T13:18:53Z</time>
      </trkpt>
      <trkpt lat="42.7066" lon="1.41516">
        <ele>1399.34</ele>
        <time>2019-08-03T13:19:10Z</time>
      </trkpt>
      <trkpt lat="42.70659" lon="1.41533">
        <ele>1392.61</ele>
        <time>2019-08-03T13:19:42Z</time>
      </trkpt>
      <trkpt lat="42.70659" lon="1.41548">
        <ele>1385.88</ele>
        <time>2019-08-03T13:20:38Z</time>
      </trkpt>
      <trkpt lat="42.70664" lon="1.41574">
        <ele>1380.11</ele>
        <time>2019-08-03T13:21:09Z</time>
      </trkpt>
      <trkpt lat="42.7068" lon="1.41599">
        <ele>1371.94</ele>
        <time>2019-08-03T13:21:44Z</time>
      </trkpt>
      <trkpt lat="42.70682" lon="1.41638">
        <ele>1364.73</ele>
        <time>2019-08-03T13:22:25Z</time>
      </trkpt>
      <trkpt lat="42.70694" lon="1.41681">
        <ele>1354.63</ele>
        <time>2019-08-03T13:23:14Z</time>
      </trkpt>
      <trkpt lat="42.70709" lon="1.41711">
        <ele>1345.98</ele>
        <time>2019-08-03T13:23:58Z</time>
      </trkpt>
      <trkpt lat="42.70716" lon="1.41682">
        <ele>1338.29</ele>
        <time>2019-08-03T13:25:34Z</time>
      </trkpt>
      <trkpt lat="42.70731" lon="1.41665">
        <ele>1331.08</ele>
        <time>2019-08-03T13:26:18Z</time>
      </trkpt>
      <trkpt lat="42.70746" lon="1.41644">
        <ele>1322.91</ele>
        <time>2019-08-03T13:27:36Z</time>
      </trkpt>
      <trkpt lat="42.70767" lon="1.41625">
        <ele>1311.38</ele>
        <time>2019-08-03T13:29:03Z</time>
      </trkpt>
      <trkpt lat="42.70775" lon="1.41612">
        <ele>1306.57</ele>
        <time>2019-08-03T13:29:20Z</time>
      </trkpt>
      <trkpt lat="42.70786" lon="1.4161">
        <ele>1301.76</ele>
        <time>2019-08-03T13:29:39Z</time>
      </trkpt>
      <trkpt lat="42.70792" lon="1.41604">
        <ele>1297.92</ele>
        <time>2019-08-03T13:30:32Z</time>
      </trkpt>
      <trkpt lat="42.70799" lon="1.41603">
        <ele>1294.07</ele>
        <time>2019-08-03T13:30:48Z</time>
      </trkpt>
      <trkpt lat="42.70803" lon="1.41591">
        <ele>1289.27</ele>
        <time>2019-08-03T13:31:01Z</time>
      </trkpt>
      <trkpt lat="42.70809" lon="1.4158">
        <ele>1284.46</ele>
        <time>2019-08-03T13:31:16Z</time>
      </trkpt>
      <trkpt lat="42.70815" lon="1.41573">
        <ele>1280.13</ele>
        <time>2019-08-03T13:31:32Z</time>
      </trkpt>
      <trkpt lat="42.7082" lon="1.4156">
        <ele>1275.33</ele>
        <time>2019-08-03T13:31:49Z</time>
      </trkpt>
      <trkpt lat="42.70822" lon="1.41543">
        <ele>1271.48</ele>
        <time>2019-08-03T13:32:04Z</time>
      </trkpt>
      <trkpt lat="42.70832" lon="1.41527">
        <ele>1268.6</ele>
        <time>2019-08-03T13:32:20Z</time>
      </trkpt>
      <trkpt lat="42.70839" lon="1.41536">
        <ele>1267.16</ele>
        <time>2019-08-03T13:32:54Z</time>
      </trkpt>
      <trkpt lat="42.70849" lon="1.41537">
        <ele>1263.79</ele>
        <time>2019-08-03T13:33:06Z</time>
      </trkpt>
      <trkpt lat="42.70867" lon="1.41525">
        <ele>1258.5</ele>
        <time>2019-08-03T13:33:34Z</time>
      </trkpt>
      <trkpt lat="42.70883" lon="1.41533">
        <ele>1252.74</ele>
        <time>2019-08-03T13:34:00Z</time>
      </trkpt>
      <trkpt lat="42.70895" lon="1.41519">
        <ele>1253.22</ele>
        <time>2019-08-03T13:34:20Z</time>
      </trkpt>
      <trkpt lat="42.70892" lon="1.41498">
        <ele>1255.62</ele>
        <time>2019-08-03T13:34:35Z</time>
      </trkpt>
      <trkpt lat="42.70888" lon="1.41472">
        <ele>1258.02</ele>
        <time>2019-08-03T13:34:51Z</time>
      </trkpt>
      <trkpt lat="42.70874" lon="1.41446">
        <ele>1260.91</ele>
        <time>2019-08-03T13:35:18Z</time>
      </trkpt>
      <trkpt lat="42.70871" lon="1.41428">
        <ele>1261.87</ele>
        <time>2019-08-03T13:35:48Z</time>
      </trkpt>
      <trkpt lat="42.70872" lon="1.41408">
        <ele>1264.75</ele>
        <time>2019-08-03T13:36:09Z</time>
      </trkpt>
      <trkpt lat="42.70877" lon="1.41391">
        <ele>1266.67</ele>
        <time>2019-08-03T13:36:28Z</time>
      </trkpt>
      <trkpt lat="42.70883" lon="1.41378">
        <ele>1270.04</ele>
        <time>2019-08-03T13:36:56Z</time>
      </trkpt>
      <trkpt lat="42.7088" lon="1.41354">
        <ele>1274.85</ele>
        <time>2019-08-03T13:37:33Z</time>
      </trkpt>
      <trkpt lat="42.70883" lon="1.41338">
        <ele>1278.21</ele>
        <time>2019-08-03T13:38:15Z</time>
      </trkpt>
      <trkpt lat="42.70886" lon="1.4132">
        <ele>1281.09</ele>
        <time>2019-08-03T13:38:43Z</time>
      </trkpt>
      <trkpt lat="42.70891" lon="1.41293">
        <ele>1283.02</ele>
        <time>2019-08-03T13:39:10Z</time>
      </trkpt>
      <trkpt lat="42.70889" lon="1.41266">
        <ele>1284.94</ele>
        <time>2019-08-03T13:39:32Z</time>
      </trkpt>
      <trkpt lat="42.70887" lon="1.41245">
        <ele>1285.42</ele>
        <time>2019-08-03T13:39:48Z</time>
      </trkpt>
      <trkpt lat="42.70884" lon="1.41225">
        <ele>1286.38</ele>
        <time>2019-08-03T13:40:02Z</time>
      </trkpt>
      <trkpt lat="42.70891" lon="1.41201">
        <ele>1286.86</ele>
        <time>2019-08-03T13:40:26Z</time>
      </trkpt>
      <trkpt lat="42.70893" lon="1.41178">
        <ele>1286.86</ele>
        <time>2019-08-03T13:40:43Z</time>
      </trkpt>
      <trkpt lat="42.70899" lon="1.41155">
        <ele>1286.86</ele>
        <time>2019-08-03T13:40:59Z</time>
      </trkpt>
      <trkpt lat="42.70902" lon="1.41133">
        <ele>1286.86</ele>
        <time>2019-08-03T13:41:14Z</time>
      </trkpt>
      <trkpt lat="42.70911" lon="1.41112">
        <ele>1287.82</ele>
        <time>2019-08-03T13:41:33Z</time>
      </trkpt>
      <trkpt lat="42.70911" lon="1.41089">
        <ele>1288.3</ele>
        <time>2019-08-03T13:41:53Z</time>
      </trkpt>
      <trkpt lat="42.70909" lon="1.41073">
        <ele>1290.71</ele>
        <time>2019-08-03T13:42:08Z</time>
      </trkpt>
      <trkpt lat="42.70906" lon="1.41055">
        <ele>1292.63</ele>
        <time>2019-08-03T13:42:26Z</time>
      </trkpt>
      <trkpt lat="42.70899" lon="1.4104">
        <ele>1292.63</ele>
        <time>2019-08-03T13:42:41Z</time>
      </trkpt>
      <trkpt lat="42.70895" lon="1.41027">
        <ele>1292.15</ele>
        <time>2019-08-03T13:42:51Z</time>
      </trkpt>
      <trkpt lat="42.70891" lon="1.41016">
        <ele>1291.67</ele>
        <time>2019-08-03T13:43:01Z</time>
      </trkpt>
      <trkpt lat="42.70892" lon="1.41">
        <ele>1291.67</ele>
        <time>2019-08-03T13:43:18Z</time>
      </trkpt>
      <trkpt lat="42.70884" lon="1.40989">
        <ele>1290.71</ele>
        <time>2019-08-03T13:43:26Z</time>
      </trkpt>
      <trkpt lat="42.70878" lon="1.40982">
        <ele>1290.23</ele>
        <time>2019-08-03T13:43:31Z</time>
      </trkpt>
      <trkpt lat="42.70876" lon="1.40972">
        <ele>1289.27</ele>
        <time>2019-08-03T13:43:37Z</time>
      </trkpt>
      <trkpt lat="42.70874" lon="1.40964">
        <ele>1289.27</ele>
        <time>2019-08-03T13:43:44Z</time>
      </trkpt>
      <trkpt lat="42.70881" lon="1.40955">
        <ele>1289.75</ele>
        <time>2019-08-03T13:43:53Z</time>
      </trkpt>
      <trkpt lat="42.70874" lon="1.40918">
        <ele>1288.78</ele>
        <time>2019-08-03T13:44:17Z</time>
      </trkpt>
      <trkpt lat="42.70873" lon="1.40902">
        <ele>1287.34</ele>
        <time>2019-08-03T13:44:32Z</time>
      </trkpt>
      <trkpt lat="42.70864" lon="1.40892">
        <ele>1288.3</ele>
        <time>2019-08-03T13:44:46Z</time>
      </trkpt>
      <trkpt lat="42.70862" lon="1.40873">
        <ele>1285.42</ele>
        <time>2019-08-03T13:45:10Z</time>
      </trkpt>
      <trkpt lat="42.7086" lon="1.40855">
        <ele>1283.98</ele>
        <time>2019-08-03T13:45:26Z</time>
      </trkpt>
      <trkpt lat="42.70866" lon="1.4084">
        <ele>1280.13</ele>
        <time>2019-08-03T13:45:52Z</time>
      </trkpt>
      <trkpt lat="42.70874" lon="1.40819">
        <ele>1279.17</ele>
        <time>2019-08-03T13:46:41Z</time>
      </trkpt>
      <trkpt lat="42.70864" lon="1.40811">
        <ele>1281.57</ele>
        <time>2019-08-03T13:47:08Z</time>
      </trkpt>
      <trkpt lat="42.70864" lon="1.40797">
        <ele>1284.46</ele>
        <time>2019-08-03T13:47:26Z</time>
      </trkpt>
      <trkpt lat="42.70868" lon="1.40786">
        <ele>1286.38</ele>
        <time>2019-08-03T13:47:43Z</time>
      </trkpt>
      <trkpt lat="42.70865" lon="1.40778">
        <ele>1290.23</ele>
        <time>2019-08-03T13:48:07Z</time>
      </trkpt>
      <trkpt lat="42.7086" lon="1.40772">
        <ele>1294.55</ele>
        <time>2019-08-03T13:48:40Z</time>
      </trkpt>
      <trkpt lat="42.70866" lon="1.40762">
        <ele>1297.92</ele>
        <time>2019-08-03T13:48:58Z</time>
      </trkpt>
      <trkpt lat="42.70866" lon="1.40744">
        <ele>1300.8</ele>
        <time>2019-08-03T13:49:18Z</time>
      </trkpt>
      <trkpt lat="42.70861" lon="1.40727">
        <ele>1301.76</ele>
        <time>2019-08-03T13:49:47Z</time>
      </trkpt>
      <trkpt lat="42.70867" lon="1.40724">
        <ele>1300.8</ele>
        <time>2019-08-03T13:50:32Z</time>
      </trkpt>
      <trkpt lat="42.70859" lon="1.40741">
        <ele>1301.28</ele>
        <time>2019-08-03T13:50:48Z</time>
      </trkpt>
      <trkpt lat="42.70862" lon="1.40717">
        <ele>1300.32</ele>
        <time>2019-08-03T13:51:55Z</time>
      </trkpt>
      <trkpt lat="42.7086" lon="1.40732">
        <ele>1300.32</ele>
        <time>2019-08-03T13:53:47Z</time>
      </trkpt>
      <trkpt lat="42.70864" lon="1.40729">
        <ele>1299.84</ele>
        <time>2019-08-03T13:54:41Z</time>
      </trkpt>
      <trkpt lat="42.70861" lon="1.40739">
        <ele>1299.84</ele>
        <time>2019-08-03T13:56:02Z</time>
      </trkpt>
      <trkpt lat="42.7086" lon="1.40753">
        <ele>1297.44</ele>
        <time>2019-08-03T13:56:53Z</time>
      </trkpt>
      <trkpt lat="42.70863" lon="1.40769">
        <ele>1295.03</ele>
        <time>2019-08-03T13:57:08Z</time>
      </trkpt>
      <trkpt lat="42.70878" lon="1.40775">
        <ele>1291.67</ele>
        <time>2019-08-03T13:57:30Z</time>
      </trkpt>
      <trkpt lat="42.70863" lon="1.40785">
        <ele>1291.67</ele>
        <time>2019-08-03T13:58:47Z</time>
      </trkpt>
      <trkpt lat="42.70863" lon="1.40765">
        <ele>1294.07</ele>
        <time>2019-08-03T13:59:01Z</time>
      </trkpt>
      <trkpt lat="42.70858" lon="1.40779">
        <ele>1289.27</ele>
        <time>2019-08-03T13:59:21Z</time>
      </trkpt>
      <trkpt lat="42.70862" lon="1.40783">
        <ele>1284.46</ele>
        <time>2019-08-03T13:59:39Z</time>
      </trkpt>
      <trkpt lat="42.70862" lon="1.40798">
        <ele>1281.57</ele>
        <time>2019-08-03T13:59:54Z</time>
      </trkpt>
      <trkpt lat="42.70864" lon="1.40813">
        <ele>1278.69</ele>
        <time>2019-08-03T14:00:34Z</time>
      </trkpt>
      <trkpt lat="42.7086" lon="1.40831">
        <ele>1277.25</ele>
        <time>2019-08-03T14:00:56Z</time>
      </trkpt>
      <trkpt lat="42.70862" lon="1.4085">
        <ele>1277.73</ele>
        <time>2019-08-03T14:02:08Z</time>
      </trkpt>
      <trkpt lat="42.7086" lon="1.40867">
        <ele>1280.61</ele>
        <time>2019-08-03T14:02:27Z</time>
      </trkpt>
      <trkpt lat="42.70861" lon="1.40883">
        <ele>1283.02</ele>
        <time>2019-08-03T14:02:47Z</time>
      </trkpt>
      <trkpt lat="42.7086" lon="1.40901">
        <ele>1285.42</ele>
        <time>2019-08-03T14:03:07Z</time>
      </trkpt>
      <trkpt lat="42.70867" lon="1.40917">
        <ele>1283.98</ele>
        <time>2019-08-03T14:03:20Z</time>
      </trkpt>
      <trkpt lat="42.70871" lon="1.40932">
        <ele>1285.42</ele>
        <time>2019-08-03T14:03:35Z</time>
      </trkpt>
      <trkpt lat="42.70878" lon="1.4095">
        <ele>1286.86</ele>
        <time>2019-08-03T14:03:50Z</time>
      </trkpt>
      <trkpt lat="42.70884" lon="1.40966">
        <ele>1285.9</ele>
        <time>2019-08-03T14:04:01Z</time>
      </trkpt>
      <trkpt lat="42.70887" lon="1.40986">
        <ele>1287.34</ele>
        <time>2019-08-03T14:04:13Z</time>
      </trkpt>
      <trkpt lat="42.70892" lon="1.41008">
        <ele>1287.82</ele>
        <time>2019-08-03T14:04:26Z</time>
      </trkpt>
      <trkpt lat="42.70894" lon="1.41028">
        <ele>1288.3</ele>
        <time>2019-08-03T14:04:39Z</time>
      </trkpt>
      <trkpt lat="42.70902" lon="1.41051">
        <ele>1288.78</ele>
        <time>2019-08-03T14:04:54Z</time>
      </trkpt>
      <trkpt lat="42.70909" lon="1.41067">
        <ele>1286.86</ele>
        <time>2019-08-03T14:05:10Z</time>
      </trkpt>
      <trkpt lat="42.70917" lon="1.41093">
        <ele>1283.98</ele>
        <time>2019-08-03T14:05:27Z</time>
      </trkpt>
      <trkpt lat="42.70915" lon="1.41111">
        <ele>1283.02</ele>
        <time>2019-08-03T14:05:40Z</time>
      </trkpt>
      <trkpt lat="42.70906" lon="1.41127">
        <ele>1281.57</ele>
        <time>2019-08-03T14:05:54Z</time>
      </trkpt>
      <trkpt lat="42.70899" lon="1.41145">
        <ele>1281.57</ele>
        <time>2019-08-03T14:06:06Z</time>
      </trkpt>
      <trkpt lat="42.70893" lon="1.41163">
        <ele>1281.57</ele>
        <time>2019-08-03T14:06:20Z</time>
      </trkpt>
      <trkpt lat="42.70892" lon="1.41184">
        <ele>1282.06</ele>
        <time>2019-08-03T14:06:33Z</time>
      </trkpt>
      <trkpt lat="42.70889" lon="1.41211">
        <ele>1281.09</ele>
        <time>2019-08-03T14:06:51Z</time>
      </trkpt>
      <trkpt lat="42.70886" lon="1.41235">
        <ele>1280.13</ele>
        <time>2019-08-03T14:07:06Z</time>
      </trkpt>
      <trkpt lat="42.70882" lon="1.41256">
        <ele>1279.17</ele>
        <time>2019-08-03T14:07:20Z</time>
      </trkpt>
      <trkpt lat="42.70886" lon="1.41278">
        <ele>1277.73</ele>
        <time>2019-08-03T14:07:35Z</time>
      </trkpt>
      <trkpt lat="42.70881" lon="1.41301">
        <ele>1277.25</ele>
        <time>2019-08-03T14:07:54Z</time>
      </trkpt>
      <trkpt lat="42.70879" lon="1.4132">
        <ele>1273.88</ele>
        <time>2019-08-03T14:08:12Z</time>
      </trkpt>
      <trkpt lat="42.7088" lon="1.41354">
        <ele>1270.52</ele>
        <time>2019-08-03T14:08:43Z</time>
      </trkpt>
      <trkpt lat="42.70881" lon="1.41385">
        <ele>1262.35</ele>
        <time>2019-08-03T14:09:21Z</time>
      </trkpt>
      <trkpt lat="42.70874" lon="1.41401">
        <ele>1258.5</ele>
        <time>2019-08-03T14:09:38Z</time>
      </trkpt>
      <trkpt lat="42.70869" lon="1.41429">
        <ele>1254.18</ele>
        <time>2019-08-03T14:10:01Z</time>
      </trkpt>
      <trkpt lat="42.70875" lon="1.41449">
        <ele>1253.22</ele>
        <time>2019-08-03T14:10:14Z</time>
      </trkpt>
      <trkpt lat="42.70882" lon="1.4147">
        <ele>1250.33</ele>
        <time>2019-08-03T14:10:28Z</time>
      </trkpt>
      <trkpt lat="42.70884" lon="1.4149">
        <ele>1247.93</ele>
        <time>2019-08-03T14:10:45Z</time>
      </trkpt>
      <trkpt lat="42.70889" lon="1.4151">
        <ele>1244.56</ele>
        <time>2019-08-03T14:11:01Z</time>
      </trkpt>
      <trkpt lat="42.70891" lon="1.41539">
        <ele>1240.72</ele>
        <time>2019-08-03T14:11:18Z</time>
      </trkpt>
      <trkpt lat="42.70888" lon="1.41564">
        <ele>1235.91</ele>
        <time>2019-08-03T14:11:38Z</time>
      </trkpt>
      <trkpt lat="42.70885" lon="1.41579">
        <ele>1233.51</ele>
        <time>2019-08-03T14:11:48Z</time>
      </trkpt>
      <trkpt lat="42.70887" lon="1.41596">
        <ele>1230.62</ele>
        <time>2019-08-03T14:12:03Z</time>
      </trkpt>
      <trkpt lat="42.70888" lon="1.41623">
        <ele>1228.7</ele>
        <time>2019-08-03T14:12:22Z</time>
      </trkpt>
      <trkpt lat="42.7089" lon="1.41644">
        <ele>1226.78</ele>
        <time>2019-08-03T14:12:36Z</time>
      </trkpt>
      <trkpt lat="42.70895" lon="1.41658">
        <ele>1224.86</ele>
        <time>2019-08-03T14:12:44Z</time>
      </trkpt>
      <trkpt lat="42.70897" lon="1.41678">
        <ele>1223.9</ele>
        <time>2019-08-03T14:12:56Z</time>
      </trkpt>
      <trkpt lat="42.709" lon="1.41695">
        <ele>1221.97</ele>
        <time>2019-08-03T14:13:06Z</time>
      </trkpt>
      <trkpt lat="42.70902" lon="1.41712">
        <ele>1219.57</ele>
        <time>2019-08-03T14:13:16Z</time>
      </trkpt>
      <trkpt lat="42.70908" lon="1.41728">
        <ele>1217.17</ele>
        <time>2019-08-03T14:13:28Z</time>
      </trkpt>
      <trkpt lat="42.70915" lon="1.41742">
        <ele>1216.69</ele>
        <time>2019-08-03T14:13:37Z</time>
      </trkpt>
      <trkpt lat="42.70916" lon="1.41759">
        <ele>1215.72</ele>
        <time>2019-08-03T14:13:45Z</time>
      </trkpt>
      <trkpt lat="42.70924" lon="1.41779">
        <ele>1213.32</ele>
        <time>2019-08-03T14:14:00Z</time>
      </trkpt>
      <trkpt lat="42.70928" lon="1.41799">
        <ele>1211.88</ele>
        <time>2019-08-03T14:14:11Z</time>
      </trkpt>
      <trkpt lat="42.70926" lon="1.41814">
        <ele>1211.4</ele>
        <time>2019-08-03T14:14:18Z</time>
      </trkpt>
      <trkpt lat="42.70928" lon="1.41832">
        <ele>1210.92</ele>
        <time>2019-08-03T14:14:28Z</time>
      </trkpt>
      <trkpt lat="42.70928" lon="1.41846">
        <ele>1209.96</ele>
        <time>2019-08-03T14:14:44Z</time>
      </trkpt>
      <trkpt lat="42.70928" lon="1.41865">
        <ele>1208.03</ele>
        <time>2019-08-03T14:14:56Z</time>
      </trkpt>
      <trkpt lat="42.70935" lon="1.41878">
        <ele>1208.03</ele>
        <time>2019-08-03T14:15:06Z</time>
      </trkpt>
      <trkpt lat="42.70939" lon="1.41896">
        <ele>1209.96</ele>
        <time>2019-08-03T14:15:19Z</time>
      </trkpt>
      <trkpt lat="42.70938" lon="1.41918">
        <ele>1211.88</ele>
        <time>2019-08-03T14:15:34Z</time>
      </trkpt>
      <trkpt lat="42.70933" lon="1.41949">
        <ele>1209.48</ele>
        <time>2019-08-03T14:15:55Z</time>
      </trkpt>
      <trkpt lat="42.70925" lon="1.41975">
        <ele>1206.11</ele>
        <time>2019-08-03T14:16:14Z</time>
      </trkpt>
      <trkpt lat="42.70922" lon="1.42002">
        <ele>1203.23</ele>
        <time>2019-08-03T14:16:31Z</time>
      </trkpt>
      <trkpt lat="42.70919" lon="1.42031">
        <ele>1202.27</ele>
        <time>2019-08-03T14:16:46Z</time>
      </trkpt>
      <trkpt lat="42.70917" lon="1.42054">
        <ele>1202.75</ele>
        <time>2019-08-03T14:17:01Z</time>
      </trkpt>
      <trkpt lat="42.70925" lon="1.42077">
        <ele>1201.3</ele>
        <time>2019-08-03T14:17:20Z</time>
      </trkpt>
      <trkpt lat="42.70929" lon="1.42097">
        <ele>1195.54</ele>
        <time>2019-08-03T14:17:36Z</time>
      </trkpt>
      <trkpt lat="42.70937" lon="1.42111">
        <ele>1189.77</ele>
        <time>2019-08-03T14:17:47Z</time>
      </trkpt>
      <trkpt lat="42.70939" lon="1.42136">
        <ele>1185.92</ele>
        <time>2019-08-03T14:18:01Z</time>
      </trkpt>
      <trkpt lat="42.70944" lon="1.42163">
        <ele>1184.48</ele>
        <time>2019-08-03T14:18:16Z</time>
      </trkpt>
      <trkpt lat="42.7095" lon="1.42181">
        <ele>1184.48</ele>
        <time>2019-08-03T14:18:30Z</time>
      </trkpt>
      <trkpt lat="42.7095" lon="1.42202">
        <ele>1183.52</ele>
        <time>2019-08-03T14:18:43Z</time>
      </trkpt>
      <trkpt lat="42.70951" lon="1.42221">
        <ele>1183.52</ele>
        <time>2019-08-03T14:18:56Z</time>
      </trkpt>
      <trkpt lat="42.70954" lon="1.42239">
        <ele>1183.52</ele>
        <time>2019-08-03T14:19:09Z</time>
      </trkpt>
      <trkpt lat="42.70958" lon="1.42257">
        <ele>1184</ele>
        <time>2019-08-03T14:19:25Z</time>
      </trkpt>
      <trkpt lat="42.70958" lon="1.42275">
        <ele>1183.04</ele>
        <time>2019-08-03T14:19:35Z</time>
      </trkpt>
      <trkpt lat="42.70958" lon="1.42294">
        <ele>1182.56</ele>
        <time>2019-08-03T14:19:46Z</time>
      </trkpt>
      <trkpt lat="42.7096" lon="1.42311">
        <ele>1182.56</ele>
        <time>2019-08-03T14:19:57Z</time>
      </trkpt>
      <trkpt lat="42.70966" lon="1.42328">
        <ele>1181.6</ele>
        <time>2019-08-03T14:20:10Z</time>
      </trkpt>
      <trkpt lat="42.70975" lon="1.4234">
        <ele>1181.12</ele>
        <time>2019-08-03T14:20:23Z</time>
      </trkpt>
      <trkpt lat="42.70977" lon="1.42357">
        <ele>1181.6</ele>
        <time>2019-08-03T14:20:35Z</time>
      </trkpt>
      <trkpt lat="42.70982" lon="1.42373">
        <ele>1180.64</ele>
        <time>2019-08-03T14:20:46Z</time>
      </trkpt>
      <trkpt lat="42.7099" lon="1.42391">
        <ele>1180.64</ele>
        <time>2019-08-03T14:20:57Z</time>
      </trkpt>
      <trkpt lat="42.70995" lon="1.42408">
        <ele>1180.16</ele>
        <time>2019-08-03T14:21:11Z</time>
      </trkpt>
      <trkpt lat="42.71" lon="1.42428">
        <ele>1179.67</ele>
        <time>2019-08-03T14:21:27Z</time>
      </trkpt>
      <trkpt lat="42.7101" lon="1.42452">
        <ele>1179.67</ele>
        <time>2019-08-03T14:21:42Z</time>
      </trkpt>
      <trkpt lat="42.71014" lon="1.42475">
        <ele>1180.16</ele>
        <time>2019-08-03T14:21:59Z</time>
      </trkpt>
      <trkpt lat="42.71024" lon="1.42494">
        <ele>1179.67</ele>
        <time>2019-08-03T14:22:15Z</time>
      </trkpt>
      <trkpt lat="42.7103" lon="1.42517">
        <ele>1178.71</ele>
        <time>2019-08-03T14:23:09Z</time>
      </trkpt>
      <trkpt lat="42.71033" lon="1.42522">
        <ele>1178.23</ele>
        <time>2019-08-03T14:23:46Z</time>
      </trkpt>
      <trkpt lat="42.7103" lon="1.42533">
        <ele>1175.83</ele>
        <time>2019-08-03T14:24:03Z</time>
      </trkpt>
      <trkpt lat="42.71033" lon="1.42548">
        <ele>1171.5</ele>
        <time>2019-08-03T14:24:29Z</time>
      </trkpt>
      <trkpt lat="42.7102" lon="1.42553">
        <ele>1167.66</ele>
        <time>2019-08-03T14:24:50Z</time>
      </trkpt>
      <trkpt lat="42.71016" lon="1.42563">
        <ele>1165.26</ele>
        <time>2019-08-03T14:25:09Z</time>
      </trkpt>
      <trkpt lat="42.71011" lon="1.42577">
        <ele>1163.33</ele>
        <time>2019-08-03T14:25:29Z</time>
      </trkpt>
    </trkseg>
  </trk>
</gpx>